<?xml version="1.0" encoding="UTF-8" standalone="no" ?>
<gpx xmlns="http://www.topografix.com/GPX/1/1" xmlns:xsi="http://www.w3.org/2001/XMLSchema-instance" xsi:schemaLocation="http://www.topografix.com/GPX/1/1 http://www.topografix.com/GPX/1/1/gpx.xsd" version="1.1" creator="VisuGPX - https://www.visugpx.com">
  <metadata>
    <name>Chalais_boucle cascades</name>
    <desc><![CDATA[Boucle vers les cascades de la Roize au départ du parking du monastère de Chalais]]></desc>
  </metadata>
  <trk>
    <name><![CDATA[Chalais_boucle cascades_1]]></name>
    <trkseg>
      <trkpt lat="45.2933" lon="5.67468">
        <ele>951.36</ele>
        <time>2016-08-25T10:10:51.000Z</time>
      </trkpt>
      <trkpt lat="45.29334" lon="5.67455">
        <ele>950.79</ele>
        <time>2016-08-25T10:10:56.000Z</time>
      </trkpt>
      <trkpt lat="45.29337" lon="5.67443">
        <ele>950.22</ele>
        <time>2016-08-25T10:11:01.000Z</time>
      </trkpt>
      <trkpt lat="45.29344" lon="5.67427">
        <ele>949.56</ele>
        <time>2016-08-25T10:11:06.000Z</time>
      </trkpt>
      <trkpt lat="45.29353" lon="5.6741">
        <ele>948.91</ele>
        <time>2016-08-25T10:11:11.000Z</time>
      </trkpt>
      <trkpt lat="45.29361" lon="5.67395">
        <ele>948.25</ele>
        <time>2016-08-25T10:11:16.000Z</time>
      </trkpt>
      <trkpt lat="45.29366" lon="5.67383">
        <ele>949.59</ele>
        <time>2016-08-25T10:11:21.000Z</time>
      </trkpt>
      <trkpt lat="45.29373" lon="5.67377">
        <ele>950.93</ele>
        <time>2016-08-25T10:11:26.000Z</time>
      </trkpt>
      <trkpt lat="45.29381" lon="5.6738">
        <ele>952.27</ele>
        <time>2016-08-25T10:11:31.000Z</time>
      </trkpt>
      <trkpt lat="45.29379" lon="5.67387">
        <ele>954.13</ele>
        <time>2016-08-25T10:11:36.000Z</time>
      </trkpt>
      <trkpt lat="45.29376" lon="5.67397">
        <ele>955.98</ele>
        <time>2016-08-25T10:11:41.000Z</time>
      </trkpt>
      <trkpt lat="45.29375" lon="5.67406">
        <ele>957.84</ele>
        <time>2016-08-25T10:11:46.000Z</time>
      </trkpt>
      <trkpt lat="45.29374" lon="5.67419">
        <ele>959.14</ele>
        <time>2016-08-25T10:11:51.000Z</time>
      </trkpt>
      <trkpt lat="45.29373" lon="5.67429">
        <ele>960.45</ele>
        <time>2016-08-25T10:11:56.000Z</time>
      </trkpt>
      <trkpt lat="45.29373" lon="5.67436">
        <ele>961.75</ele>
        <time>2016-08-25T10:12:01.000Z</time>
      </trkpt>
      <trkpt lat="45.29374" lon="5.67437">
        <ele>963.9</ele>
        <time>2016-08-25T10:12:06.000Z</time>
      </trkpt>
      <trkpt lat="45.29376" lon="5.67444">
        <ele>966.05</ele>
        <time>2016-08-25T10:12:11.000Z</time>
      </trkpt>
      <trkpt lat="45.29376" lon="5.67454">
        <ele>968.2</ele>
        <time>2016-08-25T10:12:16.000Z</time>
      </trkpt>
      <trkpt lat="45.29376" lon="5.67466">
        <ele>969</ele>
        <time>2016-08-25T10:12:21.000Z</time>
      </trkpt>
      <trkpt lat="45.29375" lon="5.67473">
        <ele>969.81</ele>
        <time>2016-08-25T10:12:26.000Z</time>
      </trkpt>
      <trkpt lat="45.29374" lon="5.67477">
        <ele>970.62</ele>
        <time>2016-08-25T10:12:31.000Z</time>
      </trkpt>
      <trkpt lat="45.29373" lon="5.67483">
        <ele>972.68</ele>
        <time>2016-08-25T10:12:36.000Z</time>
      </trkpt>
      <trkpt lat="45.29373" lon="5.67492">
        <ele>974.75</ele>
        <time>2016-08-25T10:12:41.000Z</time>
      </trkpt>
      <trkpt lat="45.29375" lon="5.67499">
        <ele>976.81</ele>
        <time>2016-08-25T10:12:46.000Z</time>
      </trkpt>
      <trkpt lat="45.29379" lon="5.67503">
        <ele>977.06</ele>
        <time>2016-08-25T10:12:51.000Z</time>
      </trkpt>
      <trkpt lat="45.29381" lon="5.67499">
        <ele>977.31</ele>
        <time>2016-08-25T10:12:56.000Z</time>
      </trkpt>
      <trkpt lat="45.29384" lon="5.67495">
        <ele>977.55</ele>
        <time>2016-08-25T10:13:01.000Z</time>
      </trkpt>
      <trkpt lat="45.29388" lon="5.67488">
        <ele>978.08</ele>
        <time>2016-08-25T10:13:06.000Z</time>
      </trkpt>
      <trkpt lat="45.29393" lon="5.67482">
        <ele>978.6</ele>
        <time>2016-08-25T10:13:11.000Z</time>
      </trkpt>
      <trkpt lat="45.29398" lon="5.67477">
        <ele>979.13</ele>
        <time>2016-08-25T10:13:16.000Z</time>
      </trkpt>
      <trkpt lat="45.29403" lon="5.67471">
        <ele>980.5</ele>
        <time>2016-08-25T10:13:21.000Z</time>
      </trkpt>
      <trkpt lat="45.2941" lon="5.67464">
        <ele>981.87</ele>
        <time>2016-08-25T10:13:26.000Z</time>
      </trkpt>
      <trkpt lat="45.29418" lon="5.6746">
        <ele>983.25</ele>
        <time>2016-08-25T10:13:31.000Z</time>
      </trkpt>
      <trkpt lat="45.29426" lon="5.67457">
        <ele>985.32</ele>
        <time>2016-08-25T10:13:36.000Z</time>
      </trkpt>
      <trkpt lat="45.29432" lon="5.67459">
        <ele>987.39</ele>
        <time>2016-08-25T10:13:41.000Z</time>
      </trkpt>
      <trkpt lat="45.2944" lon="5.67454">
        <ele>989.46</ele>
        <time>2016-08-25T10:13:46.000Z</time>
      </trkpt>
      <trkpt lat="45.29449" lon="5.67452">
        <ele>991.5</ele>
        <time>2016-08-25T10:13:51.000Z</time>
      </trkpt>
      <trkpt lat="45.29456" lon="5.67454">
        <ele>993.53</ele>
        <time>2016-08-25T10:13:56.000Z</time>
      </trkpt>
      <trkpt lat="45.29463" lon="5.67454">
        <ele>995.57</ele>
        <time>2016-08-25T10:14:01.000Z</time>
      </trkpt>
      <trkpt lat="45.29469" lon="5.67452">
        <ele>997.37</ele>
        <time>2016-08-25T10:14:06.000Z</time>
      </trkpt>
      <trkpt lat="45.2948" lon="5.67452">
        <ele>999.17</ele>
        <time>2016-08-25T10:14:11.000Z</time>
      </trkpt>
      <trkpt lat="45.29488" lon="5.67449">
        <ele>1000.97</ele>
        <time>2016-08-25T10:14:16.000Z</time>
      </trkpt>
      <trkpt lat="45.29494" lon="5.67447">
        <ele>1002.13</ele>
        <time>2016-08-25T10:14:21.000Z</time>
      </trkpt>
      <trkpt lat="45.295" lon="5.67444">
        <ele>1003.29</ele>
        <time>2016-08-25T10:14:26.000Z</time>
      </trkpt>
      <trkpt lat="45.29505" lon="5.67439">
        <ele>1004.45</ele>
        <time>2016-08-25T10:14:31.000Z</time>
      </trkpt>
      <trkpt lat="45.29515" lon="5.67439">
        <ele>1005.97</ele>
        <time>2016-08-25T10:14:36.000Z</time>
      </trkpt>
      <trkpt lat="45.29522" lon="5.6744">
        <ele>1007.5</ele>
        <time>2016-08-25T10:14:41.000Z</time>
      </trkpt>
      <trkpt lat="45.29526" lon="5.67441">
        <ele>1009.02</ele>
        <time>2016-08-25T10:14:46.000Z</time>
      </trkpt>
      <trkpt lat="45.29533" lon="5.67439">
        <ele>1009.67</ele>
        <time>2016-08-25T10:14:51.000Z</time>
      </trkpt>
      <trkpt lat="45.29539" lon="5.67439">
        <ele>1010.32</ele>
        <time>2016-08-25T10:14:56.000Z</time>
      </trkpt>
      <trkpt lat="45.29545" lon="5.67436">
        <ele>1010.97</ele>
        <time>2016-08-25T10:15:01.000Z</time>
      </trkpt>
      <trkpt lat="45.29551" lon="5.67432">
        <ele>1012.1</ele>
        <time>2016-08-25T10:15:06.000Z</time>
      </trkpt>
      <trkpt lat="45.29556" lon="5.67432">
        <ele>1013.22</ele>
        <time>2016-08-25T10:15:11.000Z</time>
      </trkpt>
      <trkpt lat="45.29564" lon="5.67429">
        <ele>1014.35</ele>
        <time>2016-08-25T10:15:16.000Z</time>
      </trkpt>
      <trkpt lat="45.29571" lon="5.67428">
        <ele>1016.58</ele>
        <time>2016-08-25T10:15:21.000Z</time>
      </trkpt>
      <trkpt lat="45.29578" lon="5.67427">
        <ele>1018.82</ele>
        <time>2016-08-25T10:15:26.000Z</time>
      </trkpt>
      <trkpt lat="45.29582" lon="5.67433">
        <ele>1021.06</ele>
        <time>2016-08-25T10:15:31.000Z</time>
      </trkpt>
      <trkpt lat="45.29587" lon="5.67439">
        <ele>1024.05</ele>
        <time>2016-08-25T10:15:36.000Z</time>
      </trkpt>
      <trkpt lat="45.2959" lon="5.67447">
        <ele>1027.04</ele>
        <time>2016-08-25T10:15:41.000Z</time>
      </trkpt>
      <trkpt lat="45.29594" lon="5.67456">
        <ele>1030.03</ele>
        <time>2016-08-25T10:15:46.000Z</time>
      </trkpt>
      <trkpt lat="45.29597" lon="5.67463">
        <ele>1032.86</ele>
        <time>2016-08-25T10:15:51.000Z</time>
      </trkpt>
      <trkpt lat="45.29596" lon="5.67469">
        <ele>1035.7</ele>
        <time>2016-08-25T10:15:56.000Z</time>
      </trkpt>
      <trkpt lat="45.29597" lon="5.67481">
        <ele>1038.53</ele>
        <time>2016-08-25T10:16:01.000Z</time>
      </trkpt>
      <trkpt lat="45.29594" lon="5.67497">
        <ele>1039.66</ele>
        <time>2016-08-25T10:16:06.000Z</time>
      </trkpt>
      <trkpt lat="45.2959" lon="5.67505">
        <ele>1040.79</ele>
        <time>2016-08-25T10:16:11.000Z</time>
      </trkpt>
      <trkpt lat="45.29586" lon="5.67512">
        <ele>1041.93</ele>
        <time>2016-08-25T10:16:16.000Z</time>
      </trkpt>
      <trkpt lat="45.29584" lon="5.67517">
        <ele>1042.84</ele>
        <time>2016-08-25T10:16:21.000Z</time>
      </trkpt>
      <trkpt lat="45.29579" lon="5.67519">
        <ele>1043.74</ele>
        <time>2016-08-25T10:16:26.000Z</time>
      </trkpt>
      <trkpt lat="45.29577" lon="5.67529">
        <ele>1044.65</ele>
        <time>2016-08-25T10:16:31.000Z</time>
      </trkpt>
      <trkpt lat="45.29572" lon="5.67534">
        <ele>1046.05</ele>
        <time>2016-08-25T10:16:36.000Z</time>
      </trkpt>
      <trkpt lat="45.2957" lon="5.6754">
        <ele>1047.44</ele>
        <time>2016-08-25T10:16:41.000Z</time>
      </trkpt>
      <trkpt lat="45.29567" lon="5.67545">
        <ele>1048.83</ele>
        <time>2016-08-25T10:16:46.000Z</time>
      </trkpt>
      <trkpt lat="45.29564" lon="5.67555">
        <ele>1049.55</ele>
        <time>2016-08-25T10:16:51.000Z</time>
      </trkpt>
      <trkpt lat="45.29563" lon="5.67561">
        <ele>1050.28</ele>
        <time>2016-08-25T10:16:56.000Z</time>
      </trkpt>
      <trkpt lat="45.29558" lon="5.67564">
        <ele>1051</ele>
        <time>2016-08-25T10:17:01.000Z</time>
      </trkpt>
      <trkpt lat="45.29556" lon="5.67569">
        <ele>1051.43</ele>
        <time>2016-08-25T10:17:06.000Z</time>
      </trkpt>
      <trkpt lat="45.29552" lon="5.67577">
        <ele>1051.85</ele>
        <time>2016-08-25T10:17:11.000Z</time>
      </trkpt>
      <trkpt lat="45.29548" lon="5.6758">
        <ele>1052.27</ele>
        <time>2016-08-25T10:17:16.000Z</time>
      </trkpt>
      <trkpt lat="45.29546" lon="5.67581">
        <ele>1053.77</ele>
        <time>2016-08-25T10:17:21.000Z</time>
      </trkpt>
      <trkpt lat="45.29544" lon="5.67588">
        <ele>1055.26</ele>
        <time>2016-08-25T10:17:26.000Z</time>
      </trkpt>
      <trkpt lat="45.29545" lon="5.67596">
        <ele>1056.76</ele>
        <time>2016-08-25T10:17:31.000Z</time>
      </trkpt>
      <trkpt lat="45.29543" lon="5.67607">
        <ele>1056.91</ele>
        <time>2016-08-25T10:17:36.000Z</time>
      </trkpt>
      <trkpt lat="45.2954" lon="5.67613">
        <ele>1057.06</ele>
        <time>2016-08-25T10:17:41.000Z</time>
      </trkpt>
      <trkpt lat="45.2954" lon="5.67617">
        <ele>1057.21</ele>
        <time>2016-08-25T10:17:46.000Z</time>
      </trkpt>
      <trkpt lat="45.29537" lon="5.67616">
        <ele>1057.11</ele>
        <time>2016-08-25T10:17:51.000Z</time>
      </trkpt>
      <trkpt lat="45.29535" lon="5.67614">
        <ele>1057.01</ele>
        <time>2016-08-25T10:17:56.000Z</time>
      </trkpt>
      <trkpt lat="45.29536" lon="5.67614">
        <ele>1056.91</ele>
        <time>2016-08-25T10:18:01.000Z</time>
      </trkpt>
      <trkpt lat="45.29538" lon="5.67613">
        <ele>1057.56</ele>
        <time>2016-08-25T10:18:06.000Z</time>
      </trkpt>
      <trkpt lat="45.29542" lon="5.67611">
        <ele>1058.21</ele>
        <time>2016-08-25T10:18:11.000Z</time>
      </trkpt>
      <trkpt lat="45.29549" lon="5.67609">
        <ele>1058.86</ele>
        <time>2016-08-25T10:18:16.000Z</time>
      </trkpt>
      <trkpt lat="45.29554" lon="5.67605">
        <ele>1059.76</ele>
        <time>2016-08-25T10:18:21.000Z</time>
      </trkpt>
      <trkpt lat="45.29558" lon="5.676">
        <ele>1060.65</ele>
        <time>2016-08-25T10:18:26.000Z</time>
      </trkpt>
      <trkpt lat="45.29562" lon="5.67603">
        <ele>1061.55</ele>
        <time>2016-08-25T10:18:31.000Z</time>
      </trkpt>
      <trkpt lat="45.29567" lon="5.67603">
        <ele>1062.11</ele>
        <time>2016-08-25T10:18:36.000Z</time>
      </trkpt>
      <trkpt lat="45.29572" lon="5.67602">
        <ele>1062.66</ele>
        <time>2016-08-25T10:18:41.000Z</time>
      </trkpt>
      <trkpt lat="45.29576" lon="5.67596">
        <ele>1063.21</ele>
        <time>2016-08-25T10:18:46.000Z</time>
      </trkpt>
      <trkpt lat="45.2958" lon="5.67597">
        <ele>1064.29</ele>
        <time>2016-08-25T10:18:51.000Z</time>
      </trkpt>
      <trkpt lat="45.29582" lon="5.67602">
        <ele>1065.38</ele>
        <time>2016-08-25T10:18:56.000Z</time>
      </trkpt>
      <trkpt lat="45.29586" lon="5.67602">
        <ele>1066.47</ele>
        <time>2016-08-25T10:19:01.000Z</time>
      </trkpt>
      <trkpt lat="45.2959" lon="5.67602">
        <ele>1067.44</ele>
        <time>2016-08-25T10:19:06.000Z</time>
      </trkpt>
      <trkpt lat="45.29596" lon="5.67603">
        <ele>1068.42</ele>
        <time>2016-08-25T10:19:11.000Z</time>
      </trkpt>
      <trkpt lat="45.296" lon="5.67604">
        <ele>1069.39</ele>
        <time>2016-08-25T10:19:16.000Z</time>
      </trkpt>
      <trkpt lat="45.29602" lon="5.67604">
        <ele>1070.4</ele>
        <time>2016-08-25T10:19:21.000Z</time>
      </trkpt>
      <trkpt lat="45.29607" lon="5.67603">
        <ele>1071.42</ele>
        <time>2016-08-25T10:19:26.000Z</time>
      </trkpt>
      <trkpt lat="45.29615" lon="5.67603">
        <ele>1072.43</ele>
        <time>2016-08-25T10:19:31.000Z</time>
      </trkpt>
      <trkpt lat="45.29621" lon="5.676">
        <ele>1073</ele>
        <time>2016-08-25T10:19:36.000Z</time>
      </trkpt>
      <trkpt lat="45.29624" lon="5.67598">
        <ele>1073.57</ele>
        <time>2016-08-25T10:19:41.000Z</time>
      </trkpt>
      <trkpt lat="45.29626" lon="5.67599">
        <ele>1074.14</ele>
        <time>2016-08-25T10:19:46.000Z</time>
      </trkpt>
      <trkpt lat="45.29631" lon="5.67598">
        <ele>1074.87</ele>
        <time>2016-08-25T10:19:51.000Z</time>
      </trkpt>
      <trkpt lat="45.29637" lon="5.67597">
        <ele>1075.61</ele>
        <time>2016-08-25T10:19:56.000Z</time>
      </trkpt>
      <trkpt lat="45.29642" lon="5.67596">
        <ele>1076.34</ele>
        <time>2016-08-25T10:20:01.000Z</time>
      </trkpt>
      <trkpt lat="45.29647" lon="5.67594">
        <ele>1077.41</ele>
        <time>2016-08-25T10:20:06.000Z</time>
      </trkpt>
      <trkpt lat="45.29655" lon="5.67589">
        <ele>1078.48</ele>
        <time>2016-08-25T10:20:11.000Z</time>
      </trkpt>
      <trkpt lat="45.29662" lon="5.6759">
        <ele>1079.54</ele>
        <time>2016-08-25T10:20:16.000Z</time>
      </trkpt>
      <trkpt lat="45.29668" lon="5.67589">
        <ele>1080.54</ele>
        <time>2016-08-25T10:20:21.000Z</time>
      </trkpt>
      <trkpt lat="45.29673" lon="5.67589">
        <ele>1081.55</ele>
        <time>2016-08-25T10:20:26.000Z</time>
      </trkpt>
      <trkpt lat="45.29678" lon="5.6759">
        <ele>1082.55</ele>
        <time>2016-08-25T10:20:31.000Z</time>
      </trkpt>
      <trkpt lat="45.29683" lon="5.6759">
        <ele>1084.27</ele>
        <time>2016-08-25T10:20:36.000Z</time>
      </trkpt>
      <trkpt lat="45.29689" lon="5.67595">
        <ele>1086</ele>
        <time>2016-08-25T10:20:41.000Z</time>
      </trkpt>
      <trkpt lat="45.29697" lon="5.67597">
        <ele>1087.73</ele>
        <time>2016-08-25T10:20:46.000Z</time>
      </trkpt>
      <trkpt lat="45.29703" lon="5.67599">
        <ele>1088.72</ele>
        <time>2016-08-25T10:20:51.000Z</time>
      </trkpt>
      <trkpt lat="45.29711" lon="5.67594">
        <ele>1089.71</ele>
        <time>2016-08-25T10:20:56.000Z</time>
      </trkpt>
      <trkpt lat="45.2972" lon="5.67593">
        <ele>1090.7</ele>
        <time>2016-08-25T10:21:01.000Z</time>
      </trkpt>
      <trkpt lat="45.29728" lon="5.67591">
        <ele>1091.81</ele>
        <time>2016-08-25T10:21:06.000Z</time>
      </trkpt>
      <trkpt lat="45.29734" lon="5.67587">
        <ele>1092.92</ele>
        <time>2016-08-25T10:21:11.000Z</time>
      </trkpt>
      <trkpt lat="45.29742" lon="5.67587">
        <ele>1094.03</ele>
        <time>2016-08-25T10:21:16.000Z</time>
      </trkpt>
      <trkpt lat="45.2975" lon="5.6759">
        <ele>1095.66</ele>
        <time>2016-08-25T10:21:21.000Z</time>
      </trkpt>
      <trkpt lat="45.29759" lon="5.67597">
        <ele>1097.3</ele>
        <time>2016-08-25T10:21:26.000Z</time>
      </trkpt>
      <trkpt lat="45.29767" lon="5.67602">
        <ele>1098.93</ele>
        <time>2016-08-25T10:21:31.000Z</time>
      </trkpt>
      <trkpt lat="45.29772" lon="5.67604">
        <ele>1100.28</ele>
        <time>2016-08-25T10:21:36.000Z</time>
      </trkpt>
      <trkpt lat="45.29779" lon="5.67606">
        <ele>1101.62</ele>
        <time>2016-08-25T10:21:41.000Z</time>
      </trkpt>
      <trkpt lat="45.29786" lon="5.6761">
        <ele>1102.97</ele>
        <time>2016-08-25T10:21:46.000Z</time>
      </trkpt>
      <trkpt lat="45.29795" lon="5.67612">
        <ele>1104.09</ele>
        <time>2016-08-25T10:21:51.000Z</time>
      </trkpt>
      <trkpt lat="45.29803" lon="5.67612">
        <ele>1105.21</ele>
        <time>2016-08-25T10:21:56.000Z</time>
      </trkpt>
      <trkpt lat="45.29809" lon="5.67611">
        <ele>1106.33</ele>
        <time>2016-08-25T10:22:01.000Z</time>
      </trkpt>
      <trkpt lat="45.29816" lon="5.67616">
        <ele>1107.75</ele>
        <time>2016-08-25T10:22:06.000Z</time>
      </trkpt>
      <trkpt lat="45.29826" lon="5.6762">
        <ele>1109.16</ele>
        <time>2016-08-25T10:22:11.000Z</time>
      </trkpt>
      <trkpt lat="45.29833" lon="5.67626">
        <ele>1110.58</ele>
        <time>2016-08-25T10:22:16.000Z</time>
      </trkpt>
      <trkpt lat="45.29841" lon="5.67628">
        <ele>1111.64</ele>
        <time>2016-08-25T10:22:21.000Z</time>
      </trkpt>
      <trkpt lat="45.29848" lon="5.67632">
        <ele>1112.71</ele>
        <time>2016-08-25T10:22:26.000Z</time>
      </trkpt>
      <trkpt lat="45.29854" lon="5.67639">
        <ele>1113.77</ele>
        <time>2016-08-25T10:22:31.000Z</time>
      </trkpt>
      <trkpt lat="45.29862" lon="5.67639">
        <ele>1114.71</ele>
        <time>2016-08-25T10:22:36.000Z</time>
      </trkpt>
      <trkpt lat="45.2987" lon="5.67637">
        <ele>1115.64</ele>
        <time>2016-08-25T10:22:41.000Z</time>
      </trkpt>
      <trkpt lat="45.29875" lon="5.67643">
        <ele>1116.58</ele>
        <time>2016-08-25T10:22:46.000Z</time>
      </trkpt>
      <trkpt lat="45.2988" lon="5.67652">
        <ele>1117.91</ele>
        <time>2016-08-25T10:22:51.000Z</time>
      </trkpt>
      <trkpt lat="45.29886" lon="5.67664">
        <ele>1119.23</ele>
        <time>2016-08-25T10:22:56.000Z</time>
      </trkpt>
      <trkpt lat="45.2989" lon="5.67675">
        <ele>1120.56</ele>
        <time>2016-08-25T10:23:01.000Z</time>
      </trkpt>
      <trkpt lat="45.29894" lon="5.67683">
        <ele>1121.43</ele>
        <time>2016-08-25T10:23:06.000Z</time>
      </trkpt>
      <trkpt lat="45.29897" lon="5.6769">
        <ele>1122.3</ele>
        <time>2016-08-25T10:23:11.000Z</time>
      </trkpt>
      <trkpt lat="45.29901" lon="5.67697">
        <ele>1123.17</ele>
        <time>2016-08-25T10:23:16.000Z</time>
      </trkpt>
      <trkpt lat="45.29907" lon="5.677">
        <ele>1123.91</ele>
        <time>2016-08-25T10:23:21.000Z</time>
      </trkpt>
      <trkpt lat="45.29911" lon="5.67701">
        <ele>1124.66</ele>
        <time>2016-08-25T10:23:26.000Z</time>
      </trkpt>
      <trkpt lat="45.29916" lon="5.67704">
        <ele>1125.41</ele>
        <time>2016-08-25T10:23:31.000Z</time>
      </trkpt>
      <trkpt lat="45.2992" lon="5.6771">
        <ele>1126.63</ele>
        <time>2016-08-25T10:23:36.000Z</time>
      </trkpt>
      <trkpt lat="45.29926" lon="5.67717">
        <ele>1127.86</ele>
        <time>2016-08-25T10:23:41.000Z</time>
      </trkpt>
      <trkpt lat="45.29934" lon="5.67727">
        <ele>1129.09</ele>
        <time>2016-08-25T10:23:46.000Z</time>
      </trkpt>
      <trkpt lat="45.29937" lon="5.67735">
        <ele>1129.79</ele>
        <time>2016-08-25T10:23:51.000Z</time>
      </trkpt>
      <trkpt lat="45.29938" lon="5.67741">
        <ele>1130.49</ele>
        <time>2016-08-25T10:23:56.000Z</time>
      </trkpt>
      <trkpt lat="45.29941" lon="5.67749">
        <ele>1131.2</ele>
        <time>2016-08-25T10:24:01.000Z</time>
      </trkpt>
      <trkpt lat="45.29944" lon="5.67763">
        <ele>1131.72</ele>
        <time>2016-08-25T10:24:06.000Z</time>
      </trkpt>
      <trkpt lat="45.29947" lon="5.67774">
        <ele>1132.25</ele>
        <time>2016-08-25T10:24:11.000Z</time>
      </trkpt>
      <trkpt lat="45.29948" lon="5.6778">
        <ele>1132.78</ele>
        <time>2016-08-25T10:24:16.000Z</time>
      </trkpt>
      <trkpt lat="45.29948" lon="5.6779">
        <ele>1133.06</ele>
        <time>2016-08-25T10:24:21.000Z</time>
      </trkpt>
      <trkpt lat="45.29951" lon="5.67799">
        <ele>1133.34</ele>
        <time>2016-08-25T10:24:26.000Z</time>
      </trkpt>
      <trkpt lat="45.29952" lon="5.6781">
        <ele>1133.62</ele>
        <time>2016-08-25T10:24:31.000Z</time>
      </trkpt>
      <trkpt lat="45.29954" lon="5.67823">
        <ele>1133.66</ele>
        <time>2016-08-25T10:24:36.000Z</time>
      </trkpt>
      <trkpt lat="45.29954" lon="5.67832">
        <ele>1133.69</ele>
        <time>2016-08-25T10:24:41.000Z</time>
      </trkpt>
      <trkpt lat="45.29958" lon="5.67841">
        <ele>1133.73</ele>
        <time>2016-08-25T10:24:46.000Z</time>
      </trkpt>
      <trkpt lat="45.29963" lon="5.67852">
        <ele>1133.37</ele>
        <time>2016-08-25T10:24:51.000Z</time>
      </trkpt>
      <trkpt lat="45.29964" lon="5.6786">
        <ele>1133.01</ele>
        <time>2016-08-25T10:24:56.000Z</time>
      </trkpt>
      <trkpt lat="45.29968" lon="5.67866">
        <ele>1132.65</ele>
        <time>2016-08-25T10:25:01.000Z</time>
      </trkpt>
      <trkpt lat="45.29973" lon="5.67874">
        <ele>1132.83</ele>
        <time>2016-08-25T10:25:06.000Z</time>
      </trkpt>
      <trkpt lat="45.29971" lon="5.67887">
        <ele>1133.01</ele>
        <time>2016-08-25T10:25:11.000Z</time>
      </trkpt>
      <trkpt lat="45.29967" lon="5.679">
        <ele>1133.19</ele>
        <time>2016-08-25T10:25:16.000Z</time>
      </trkpt>
      <trkpt lat="45.29961" lon="5.67912">
        <ele>1133.04</ele>
        <time>2016-08-25T10:25:21.000Z</time>
      </trkpt>
      <trkpt lat="45.29958" lon="5.67924">
        <ele>1132.88</ele>
        <time>2016-08-25T10:25:26.000Z</time>
      </trkpt>
      <trkpt lat="45.29959" lon="5.67934">
        <ele>1132.72</ele>
        <time>2016-08-25T10:25:31.000Z</time>
      </trkpt>
      <trkpt lat="45.29965" lon="5.67945">
        <ele>1132.57</ele>
        <time>2016-08-25T10:25:36.000Z</time>
      </trkpt>
      <trkpt lat="45.29968" lon="5.67959">
        <ele>1132.42</ele>
        <time>2016-08-25T10:25:41.000Z</time>
      </trkpt>
      <trkpt lat="45.29974" lon="5.67976">
        <ele>1132.27</ele>
        <time>2016-08-25T10:25:46.000Z</time>
      </trkpt>
      <trkpt lat="45.29975" lon="5.67987">
        <ele>1132.73</ele>
        <time>2016-08-25T10:25:51.000Z</time>
      </trkpt>
      <trkpt lat="45.29975" lon="5.68">
        <ele>1133.18</ele>
        <time>2016-08-25T10:25:56.000Z</time>
      </trkpt>
      <trkpt lat="45.29977" lon="5.68015">
        <ele>1133.64</ele>
        <time>2016-08-25T10:26:01.000Z</time>
      </trkpt>
      <trkpt lat="45.29977" lon="5.68027">
        <ele>1134.31</ele>
        <time>2016-08-25T10:26:06.000Z</time>
      </trkpt>
      <trkpt lat="45.29976" lon="5.68037">
        <ele>1134.97</ele>
        <time>2016-08-25T10:26:11.000Z</time>
      </trkpt>
      <trkpt lat="45.29973" lon="5.68049">
        <ele>1135.64</ele>
        <time>2016-08-25T10:26:16.000Z</time>
      </trkpt>
      <trkpt lat="45.29969" lon="5.6806">
        <ele>1136.1</ele>
        <time>2016-08-25T10:26:21.000Z</time>
      </trkpt>
      <trkpt lat="45.29968" lon="5.68072">
        <ele>1136.55</ele>
        <time>2016-08-25T10:26:26.000Z</time>
      </trkpt>
      <trkpt lat="45.29969" lon="5.68088">
        <ele>1137.01</ele>
        <time>2016-08-25T10:26:31.000Z</time>
      </trkpt>
      <trkpt lat="45.29967" lon="5.68099">
        <ele>1137.35</ele>
        <time>2016-08-25T10:26:36.000Z</time>
      </trkpt>
      <trkpt lat="45.29971" lon="5.68113">
        <ele>1137.69</ele>
        <time>2016-08-25T10:26:41.000Z</time>
      </trkpt>
      <trkpt lat="45.29972" lon="5.68131">
        <ele>1138.04</ele>
        <time>2016-08-25T10:26:46.000Z</time>
      </trkpt>
      <trkpt lat="45.29975" lon="5.68146">
        <ele>1137.9</ele>
        <time>2016-08-25T10:26:51.000Z</time>
      </trkpt>
      <trkpt lat="45.29976" lon="5.68155">
        <ele>1137.76</ele>
        <time>2016-08-25T10:26:56.000Z</time>
      </trkpt>
      <trkpt lat="45.29982" lon="5.68166">
        <ele>1137.63</ele>
        <time>2016-08-25T10:27:01.000Z</time>
      </trkpt>
      <trkpt lat="45.2999" lon="5.68175">
        <ele>1137.5</ele>
        <time>2016-08-25T10:27:06.000Z</time>
      </trkpt>
      <trkpt lat="45.29995" lon="5.68185">
        <ele>1137.37</ele>
        <time>2016-08-25T10:27:11.000Z</time>
      </trkpt>
      <trkpt lat="45.29997" lon="5.68189">
        <ele>1137.24</ele>
        <time>2016-08-25T10:27:16.000Z</time>
      </trkpt>
      <trkpt lat="45.29996" lon="5.68189">
        <ele>1137.2</ele>
        <time>2016-08-25T10:27:21.000Z</time>
      </trkpt>
      <trkpt lat="45.29996" lon="5.6819">
        <ele>1137.16</ele>
        <time>2016-08-25T10:27:26.000Z</time>
      </trkpt>
      <trkpt lat="45.29996" lon="5.68191">
        <ele>1137.12</ele>
        <time>2016-08-25T10:27:31.000Z</time>
      </trkpt>
      <trkpt lat="45.29998" lon="5.68193">
        <ele>1137.24</ele>
        <time>2016-08-25T10:27:36.000Z</time>
      </trkpt>
      <trkpt lat="45.29996" lon="5.68192">
        <ele>1137.36</ele>
        <time>2016-08-25T10:27:41.000Z</time>
      </trkpt>
      <trkpt lat="45.29995" lon="5.68191">
        <ele>1137.48</ele>
        <time>2016-08-25T10:27:46.000Z</time>
      </trkpt>
      <trkpt lat="45.29997" lon="5.68199">
        <ele>1138.67</ele>
        <time>2016-08-25T10:27:51.000Z</time>
      </trkpt>
      <trkpt lat="45.29999" lon="5.68226">
        <ele>1139.87</ele>
        <time>2016-08-25T10:27:56.000Z</time>
      </trkpt>
      <trkpt lat="45.29998" lon="5.68253">
        <ele>1141.06</ele>
        <time>2016-08-25T10:28:01.000Z</time>
      </trkpt>
      <trkpt lat="45.29995" lon="5.68274">
        <ele>1138.71</ele>
        <time>2016-08-25T10:28:06.000Z</time>
      </trkpt>
      <trkpt lat="45.29989" lon="5.68295">
        <ele>1136.37</ele>
        <time>2016-08-25T10:28:11.000Z</time>
      </trkpt>
      <trkpt lat="45.30003" lon="5.68309">
        <ele>1134.03</ele>
        <time>2016-08-25T10:28:16.000Z</time>
      </trkpt>
      <trkpt lat="45.30019" lon="5.68328">
        <ele>1131.23</ele>
        <time>2016-08-25T10:28:21.000Z</time>
      </trkpt>
      <trkpt lat="45.30031" lon="5.6834">
        <ele>1128.43</ele>
        <time>2016-08-25T10:28:26.000Z</time>
      </trkpt>
      <trkpt lat="45.30039" lon="5.68348">
        <ele>1125.63</ele>
        <time>2016-08-25T10:28:31.000Z</time>
      </trkpt>
      <trkpt lat="45.30039" lon="5.6835">
        <ele>1126.37</ele>
        <time>2016-08-25T10:28:36.000Z</time>
      </trkpt>
      <trkpt lat="45.30038" lon="5.68356">
        <ele>1127.12</ele>
        <time>2016-08-25T10:28:41.000Z</time>
      </trkpt>
      <trkpt lat="45.30034" lon="5.68354">
        <ele>1127.87</ele>
        <time>2016-08-25T10:28:46.000Z</time>
      </trkpt>
      <trkpt lat="45.30033" lon="5.68355">
        <ele>1127.32</ele>
        <time>2016-08-25T10:28:51.000Z</time>
      </trkpt>
      <trkpt lat="45.30035" lon="5.68356">
        <ele>1126.78</ele>
        <time>2016-08-25T10:28:56.000Z</time>
      </trkpt>
      <trkpt lat="45.30033" lon="5.68358">
        <ele>1126.23</ele>
        <time>2016-08-25T10:29:01.000Z</time>
      </trkpt>
      <trkpt lat="45.30036" lon="5.68367">
        <ele>1126.94</ele>
        <time>2016-08-25T10:29:06.000Z</time>
      </trkpt>
      <trkpt lat="45.30032" lon="5.68376">
        <ele>1127.65</ele>
        <time>2016-08-25T10:29:11.000Z</time>
      </trkpt>
      <trkpt lat="45.30029" lon="5.6839">
        <ele>1128.36</ele>
        <time>2016-08-25T10:29:16.000Z</time>
      </trkpt>
      <trkpt lat="45.30027" lon="5.68407">
        <ele>1128.92</ele>
        <time>2016-08-25T10:29:21.000Z</time>
      </trkpt>
      <trkpt lat="45.30024" lon="5.68418">
        <ele>1129.48</ele>
        <time>2016-08-25T10:29:26.000Z</time>
      </trkpt>
      <trkpt lat="45.30024" lon="5.68433">
        <ele>1130.04</ele>
        <time>2016-08-25T10:29:31.000Z</time>
      </trkpt>
      <trkpt lat="45.30022" lon="5.68451">
        <ele>1131.14</ele>
        <time>2016-08-25T10:29:36.000Z</time>
      </trkpt>
      <trkpt lat="45.30012" lon="5.68467">
        <ele>1132.24</ele>
        <time>2016-08-25T10:29:41.000Z</time>
      </trkpt>
      <trkpt lat="45.30005" lon="5.68476">
        <ele>1133.34</ele>
        <time>2016-08-25T10:29:46.000Z</time>
      </trkpt>
      <trkpt lat="45.30016" lon="5.68481">
        <ele>1129.47</ele>
        <time>2016-08-25T10:29:51.000Z</time>
      </trkpt>
      <trkpt lat="45.30027" lon="5.68497">
        <ele>1125.6</ele>
        <time>2016-08-25T10:29:56.000Z</time>
      </trkpt>
      <trkpt lat="45.3004" lon="5.68503">
        <ele>1121.72</ele>
        <time>2016-08-25T10:30:01.000Z</time>
      </trkpt>
      <trkpt lat="45.3005" lon="5.68514">
        <ele>1118.23</ele>
        <time>2016-08-25T10:30:06.000Z</time>
      </trkpt>
      <trkpt lat="45.30062" lon="5.6853">
        <ele>1114.74</ele>
        <time>2016-08-25T10:30:11.000Z</time>
      </trkpt>
      <trkpt lat="45.30075" lon="5.68544">
        <ele>1111.24</ele>
        <time>2016-08-25T10:30:16.000Z</time>
      </trkpt>
      <trkpt lat="45.30083" lon="5.68551">
        <ele>1110.45</ele>
        <time>2016-08-25T10:30:21.000Z</time>
      </trkpt>
      <trkpt lat="45.30095" lon="5.68562">
        <ele>1109.66</ele>
        <time>2016-08-25T10:30:26.000Z</time>
      </trkpt>
      <trkpt lat="45.30106" lon="5.68586">
        <ele>1108.87</ele>
        <time>2016-08-25T10:30:31.000Z</time>
      </trkpt>
      <trkpt lat="45.30114" lon="5.68598">
        <ele>1105.27</ele>
        <time>2016-08-25T10:30:36.000Z</time>
      </trkpt>
      <trkpt lat="45.30125" lon="5.68605">
        <ele>1101.67</ele>
        <time>2016-08-25T10:30:41.000Z</time>
      </trkpt>
      <trkpt lat="45.30136" lon="5.68609">
        <ele>1098.08</ele>
        <time>2016-08-25T10:30:46.000Z</time>
      </trkpt>
      <trkpt lat="45.30143" lon="5.6861">
        <ele>1099.02</ele>
        <time>2016-08-25T10:30:51.000Z</time>
      </trkpt>
      <trkpt lat="45.30148" lon="5.68615">
        <ele>1099.96</ele>
        <time>2016-08-25T10:30:56.000Z</time>
      </trkpt>
      <trkpt lat="45.30149" lon="5.68621">
        <ele>1100.9</ele>
        <time>2016-08-25T10:31:01.000Z</time>
      </trkpt>
      <trkpt lat="45.30147" lon="5.68623">
        <ele>1100.23</ele>
        <time>2016-08-25T10:31:06.000Z</time>
      </trkpt>
      <trkpt lat="45.30139" lon="5.68622">
        <ele>1099.56</ele>
        <time>2016-08-25T10:31:11.000Z</time>
      </trkpt>
      <trkpt lat="45.30132" lon="5.68613">
        <ele>1098.89</ele>
        <time>2016-08-25T10:31:16.000Z</time>
      </trkpt>
      <trkpt lat="45.30139" lon="5.68606">
        <ele>1101.66</ele>
        <time>2016-08-25T10:31:21.000Z</time>
      </trkpt>
      <trkpt lat="45.3015" lon="5.6861">
        <ele>1104.44</ele>
        <time>2016-08-25T10:31:26.000Z</time>
      </trkpt>
      <trkpt lat="45.30155" lon="5.68627">
        <ele>1107.21</ele>
        <time>2016-08-25T10:31:31.000Z</time>
      </trkpt>
      <trkpt lat="45.30152" lon="5.68648">
        <ele>1106.86</ele>
        <time>2016-08-25T10:31:36.000Z</time>
      </trkpt>
      <trkpt lat="45.30159" lon="5.68653">
        <ele>1106.51</ele>
        <time>2016-08-25T10:31:41.000Z</time>
      </trkpt>
      <trkpt lat="45.30166" lon="5.68657">
        <ele>1106.15</ele>
        <time>2016-08-25T10:31:46.000Z</time>
      </trkpt>
      <trkpt lat="45.30169" lon="5.68659">
        <ele>1105.2</ele>
        <time>2016-08-25T10:31:51.000Z</time>
      </trkpt>
      <trkpt lat="45.30168" lon="5.68658">
        <ele>1104.24</ele>
        <time>2016-08-25T10:31:56.000Z</time>
      </trkpt>
      <trkpt lat="45.30173" lon="5.68659">
        <ele>1103.29</ele>
        <time>2016-08-25T10:32:01.000Z</time>
      </trkpt>
      <trkpt lat="45.3018" lon="5.68659">
        <ele>1101.49</ele>
        <time>2016-08-25T10:32:06.000Z</time>
      </trkpt>
      <trkpt lat="45.30183" lon="5.68654">
        <ele>1099.68</ele>
        <time>2016-08-25T10:32:11.000Z</time>
      </trkpt>
      <trkpt lat="45.30186" lon="5.68651">
        <ele>1097.88</ele>
        <time>2016-08-25T10:32:16.000Z</time>
      </trkpt>
      <trkpt lat="45.30188" lon="5.68648">
        <ele>1096.96</ele>
        <time>2016-08-25T10:32:21.000Z</time>
      </trkpt>
      <trkpt lat="45.3019" lon="5.68644">
        <ele>1096.04</ele>
        <time>2016-08-25T10:32:26.000Z</time>
      </trkpt>
      <trkpt lat="45.30191" lon="5.68642">
        <ele>1095.12</ele>
        <time>2016-08-25T10:32:31.000Z</time>
      </trkpt>
      <trkpt lat="45.30191" lon="5.68641">
        <ele>1096.63</ele>
        <time>2016-08-25T10:32:36.000Z</time>
      </trkpt>
      <trkpt lat="45.30187" lon="5.68641">
        <ele>1098.14</ele>
        <time>2016-08-25T10:32:41.000Z</time>
      </trkpt>
      <trkpt lat="45.30181" lon="5.68642">
        <ele>1099.65</ele>
        <time>2016-08-25T10:32:46.000Z</time>
      </trkpt>
      <trkpt lat="45.30174" lon="5.68642">
        <ele>1100.16</ele>
        <time>2016-08-25T10:32:51.000Z</time>
      </trkpt>
      <trkpt lat="45.30171" lon="5.68642">
        <ele>1100.66</ele>
        <time>2016-08-25T10:32:56.000Z</time>
      </trkpt>
      <trkpt lat="45.3017" lon="5.68643">
        <ele>1101.17</ele>
        <time>2016-08-25T10:33:01.000Z</time>
      </trkpt>
      <trkpt lat="45.3017" lon="5.68644">
        <ele>1101.64</ele>
        <time>2016-08-25T10:33:06.000Z</time>
      </trkpt>
      <trkpt lat="45.30168" lon="5.68644">
        <ele>1102.1</ele>
        <time>2016-08-25T10:33:11.000Z</time>
      </trkpt>
      <trkpt lat="45.3017" lon="5.68646">
        <ele>1102.57</ele>
        <time>2016-08-25T10:33:16.000Z</time>
      </trkpt>
      <trkpt lat="45.30169" lon="5.68647">
        <ele>1100.53</ele>
        <time>2016-08-25T10:33:21.000Z</time>
      </trkpt>
      <trkpt lat="45.30171" lon="5.68647">
        <ele>1098.49</ele>
        <time>2016-08-25T10:33:26.000Z</time>
      </trkpt>
      <trkpt lat="45.30175" lon="5.68645">
        <ele>1096.46</ele>
        <time>2016-08-25T10:33:31.000Z</time>
      </trkpt>
      <trkpt lat="45.30189" lon="5.68643">
        <ele>1097.87</ele>
        <time>2016-08-25T10:33:36.000Z</time>
      </trkpt>
      <trkpt lat="45.30204" lon="5.68649">
        <ele>1099.29</ele>
        <time>2016-08-25T10:33:41.000Z</time>
      </trkpt>
      <trkpt lat="45.30215" lon="5.68643">
        <ele>1100.7</ele>
        <time>2016-08-25T10:33:46.000Z</time>
      </trkpt>
      <trkpt lat="45.30226" lon="5.68663">
        <ele>1104.05</ele>
        <time>2016-08-25T10:33:51.000Z</time>
      </trkpt>
      <trkpt lat="45.30227" lon="5.68687">
        <ele>1107.4</ele>
        <time>2016-08-25T10:33:56.000Z</time>
      </trkpt>
      <trkpt lat="45.30227" lon="5.68697">
        <ele>1110.76</ele>
        <time>2016-08-25T10:34:01.000Z</time>
      </trkpt>
      <trkpt lat="45.30231" lon="5.68688">
        <ele>1118.79</ele>
        <time>2016-08-25T10:34:06.000Z</time>
      </trkpt>
      <trkpt lat="45.30236" lon="5.68694">
        <ele>1126.83</ele>
        <time>2016-08-25T10:34:11.000Z</time>
      </trkpt>
      <trkpt lat="45.30248" lon="5.687">
        <ele>1134.86</ele>
        <time>2016-08-25T10:34:16.000Z</time>
      </trkpt>
      <trkpt lat="45.30256" lon="5.68724">
        <ele>1139.98</ele>
        <time>2016-08-25T10:34:21.000Z</time>
      </trkpt>
      <trkpt lat="45.30253" lon="5.68736">
        <ele>1145.1</ele>
        <time>2016-08-25T10:34:26.000Z</time>
      </trkpt>
      <trkpt lat="45.30258" lon="5.68743">
        <ele>1150.22</ele>
        <time>2016-08-25T10:34:31.000Z</time>
      </trkpt>
      <trkpt lat="45.30265" lon="5.68754">
        <ele>1159.29</ele>
        <time>2016-08-25T10:34:36.000Z</time>
      </trkpt>
      <trkpt lat="45.30271" lon="5.68767">
        <ele>1168.36</ele>
        <time>2016-08-25T10:34:41.000Z</time>
      </trkpt>
      <trkpt lat="45.30276" lon="5.68789">
        <ele>1177.43</ele>
        <time>2016-08-25T10:34:46.000Z</time>
      </trkpt>
      <trkpt lat="45.30281" lon="5.68806">
        <ele>1185.44</ele>
        <time>2016-08-25T10:34:51.000Z</time>
      </trkpt>
      <trkpt lat="45.30282" lon="5.68819">
        <ele>1193.44</ele>
        <time>2016-08-25T10:34:56.000Z</time>
      </trkpt>
      <trkpt lat="45.30287" lon="5.68832">
        <ele>1201.45</ele>
        <time>2016-08-25T10:35:01.000Z</time>
      </trkpt>
      <trkpt lat="45.30294" lon="5.68845">
        <ele>1205.79</ele>
        <time>2016-08-25T10:35:06.000Z</time>
      </trkpt>
      <trkpt lat="45.30299" lon="5.68851">
        <ele>1210.13</ele>
        <time>2016-08-25T10:35:11.000Z</time>
      </trkpt>
      <trkpt lat="45.30304" lon="5.68857">
        <ele>1214.47</ele>
        <time>2016-08-25T10:35:16.000Z</time>
      </trkpt>
      <trkpt lat="45.30305" lon="5.68859">
        <ele>1216.12</ele>
        <time>2016-08-25T10:35:21.000Z</time>
      </trkpt>
      <trkpt lat="45.30305" lon="5.68861">
        <ele>1217.77</ele>
        <time>2016-08-25T10:35:26.000Z</time>
      </trkpt>
      <trkpt lat="45.30306" lon="5.6887">
        <ele>1219.41</ele>
        <time>2016-08-25T10:35:31.000Z</time>
      </trkpt>
      <trkpt lat="45.30305" lon="5.6887">
        <ele>1221.24</ele>
        <time>2016-08-25T10:35:36.000Z</time>
      </trkpt>
      <trkpt lat="45.30304" lon="5.6887">
        <ele>1223.07</ele>
        <time>2016-08-25T10:35:41.000Z</time>
      </trkpt>
      <trkpt lat="45.30308" lon="5.68872">
        <ele>1224.9</ele>
        <time>2016-08-25T10:35:46.000Z</time>
      </trkpt>
      <trkpt lat="45.30311" lon="5.68874">
        <ele>1222.4</ele>
        <time>2016-08-25T10:35:51.000Z</time>
      </trkpt>
      <trkpt lat="45.30307" lon="5.68875">
        <ele>1219.91</ele>
        <time>2016-08-25T10:35:56.000Z</time>
      </trkpt>
      <trkpt lat="45.30304" lon="5.68876">
        <ele>1217.41</ele>
        <time>2016-08-25T10:36:01.000Z</time>
      </trkpt>
      <trkpt lat="45.303" lon="5.68873">
        <ele>1216.51</ele>
        <time>2016-08-25T10:36:06.000Z</time>
      </trkpt>
      <trkpt lat="45.30296" lon="5.68871">
        <ele>1215.61</ele>
        <time>2016-08-25T10:36:11.000Z</time>
      </trkpt>
      <trkpt lat="45.30295" lon="5.6887">
        <ele>1214.71</ele>
        <time>2016-08-25T10:36:16.000Z</time>
      </trkpt>
      <trkpt lat="45.30298" lon="5.6887">
        <ele>1216.93</ele>
        <time>2016-08-25T10:36:21.000Z</time>
      </trkpt>
      <trkpt lat="45.30293" lon="5.6887">
        <ele>1219.16</ele>
        <time>2016-08-25T10:36:26.000Z</time>
      </trkpt>
      <trkpt lat="45.30307" lon="5.68874">
        <ele>1221.38</ele>
        <time>2016-08-25T10:36:31.000Z</time>
      </trkpt>
      <trkpt lat="45.30307" lon="5.68872">
        <ele>1220.53</ele>
        <time>2016-08-25T10:36:36.000Z</time>
      </trkpt>
      <trkpt lat="45.30304" lon="5.6887">
        <ele>1219.67</ele>
        <time>2016-08-25T10:36:41.000Z</time>
      </trkpt>
      <trkpt lat="45.30304" lon="5.68869">
        <ele>1218.82</ele>
        <time>2016-08-25T10:36:46.000Z</time>
      </trkpt>
      <trkpt lat="45.30304" lon="5.6887">
        <ele>1219.17</ele>
        <time>2016-08-25T10:36:51.000Z</time>
      </trkpt>
      <trkpt lat="45.30305" lon="5.6887">
        <ele>1219.52</ele>
        <time>2016-08-25T10:36:56.000Z</time>
      </trkpt>
      <trkpt lat="45.30306" lon="5.6887">
        <ele>1219.88</ele>
        <time>2016-08-25T10:37:01.000Z</time>
      </trkpt>
      <trkpt lat="45.30306" lon="5.68871">
        <ele>1219.42</ele>
        <time>2016-08-25T10:37:06.000Z</time>
      </trkpt>
      <trkpt lat="45.30306" lon="5.68871">
        <ele>1218.96</ele>
        <time>2016-08-25T10:37:11.000Z</time>
      </trkpt>
      <trkpt lat="45.30304" lon="5.68871">
        <ele>1218.5</ele>
        <time>2016-08-25T10:37:16.000Z</time>
      </trkpt>
      <trkpt lat="45.30303" lon="5.68871">
        <ele>1217.82</ele>
        <time>2016-08-25T10:37:21.000Z</time>
      </trkpt>
      <trkpt lat="45.30302" lon="5.68872">
        <ele>1217.14</ele>
        <time>2016-08-25T10:37:26.000Z</time>
      </trkpt>
      <trkpt lat="45.30301" lon="5.68871">
        <ele>1216.46</ele>
        <time>2016-08-25T10:37:31.000Z</time>
      </trkpt>
      <trkpt lat="45.303" lon="5.68871">
        <ele>1216.99</ele>
        <time>2016-08-25T10:37:36.000Z</time>
      </trkpt>
      <trkpt lat="45.30299" lon="5.68871">
        <ele>1217.52</ele>
        <time>2016-08-25T10:37:41.000Z</time>
      </trkpt>
      <trkpt lat="45.30299" lon="5.6887">
        <ele>1218.05</ele>
        <time>2016-08-25T10:37:46.000Z</time>
      </trkpt>
      <trkpt lat="45.30308" lon="5.68863">
        <ele>1217.14</ele>
        <time>2016-08-25T10:37:51.000Z</time>
      </trkpt>
      <trkpt lat="45.30311" lon="5.68861">
        <ele>1216.22</ele>
        <time>2016-08-25T10:37:56.000Z</time>
      </trkpt>
      <trkpt lat="45.30312" lon="5.68856">
        <ele>1215.31</ele>
        <time>2016-08-25T10:38:01.000Z</time>
      </trkpt>
      <trkpt lat="45.30315" lon="5.68848">
        <ele>1212.32</ele>
        <time>2016-08-25T10:38:06.000Z</time>
      </trkpt>
      <trkpt lat="45.30322" lon="5.68832">
        <ele>1209.32</ele>
        <time>2016-08-25T10:38:11.000Z</time>
      </trkpt>
      <trkpt lat="45.30321" lon="5.68819">
        <ele>1206.33</ele>
        <time>2016-08-25T10:38:16.000Z</time>
      </trkpt>
      <trkpt lat="45.30329" lon="5.68808">
        <ele>1209.02</ele>
        <time>2016-08-25T10:38:21.000Z</time>
      </trkpt>
      <trkpt lat="45.30338" lon="5.68802">
        <ele>1211.72</ele>
        <time>2016-08-25T10:38:26.000Z</time>
      </trkpt>
      <trkpt lat="45.30343" lon="5.68794">
        <ele>1214.42</ele>
        <time>2016-08-25T10:38:31.000Z</time>
      </trkpt>
      <trkpt lat="45.30349" lon="5.68799">
        <ele>1215.35</ele>
        <time>2016-08-25T10:38:36.000Z</time>
      </trkpt>
      <trkpt lat="45.30354" lon="5.68809">
        <ele>1216.29</ele>
        <time>2016-08-25T10:38:41.000Z</time>
      </trkpt>
      <trkpt lat="45.30356" lon="5.68819">
        <ele>1217.23</ele>
        <time>2016-08-25T10:38:46.000Z</time>
      </trkpt>
      <trkpt lat="45.30357" lon="5.68824">
        <ele>1218.59</ele>
        <time>2016-08-25T10:38:51.000Z</time>
      </trkpt>
      <trkpt lat="45.30359" lon="5.68833">
        <ele>1219.95</ele>
        <time>2016-08-25T10:38:56.000Z</time>
      </trkpt>
      <trkpt lat="45.30359" lon="5.68843">
        <ele>1221.32</ele>
        <time>2016-08-25T10:39:01.000Z</time>
      </trkpt>
      <trkpt lat="45.3036" lon="5.6884">
        <ele>1216.63</ele>
        <time>2016-08-25T10:39:06.000Z</time>
      </trkpt>
      <trkpt lat="45.30361" lon="5.68835">
        <ele>1211.95</ele>
        <time>2016-08-25T10:39:11.000Z</time>
      </trkpt>
      <trkpt lat="45.30364" lon="5.68831">
        <ele>1207.27</ele>
        <time>2016-08-25T10:39:16.000Z</time>
      </trkpt>
      <trkpt lat="45.30367" lon="5.68828">
        <ele>1201.18</ele>
        <time>2016-08-25T10:39:21.000Z</time>
      </trkpt>
      <trkpt lat="45.30371" lon="5.68824">
        <ele>1195.08</ele>
        <time>2016-08-25T10:39:26.000Z</time>
      </trkpt>
      <trkpt lat="45.30374" lon="5.68816">
        <ele>1188.99</ele>
        <time>2016-08-25T10:39:31.000Z</time>
      </trkpt>
      <trkpt lat="45.30377" lon="5.68812">
        <ele>1188.01</ele>
        <time>2016-08-25T10:39:36.000Z</time>
      </trkpt>
      <trkpt lat="45.30378" lon="5.68806">
        <ele>1187.03</ele>
        <time>2016-08-25T10:39:41.000Z</time>
      </trkpt>
      <trkpt lat="45.3038" lon="5.68806">
        <ele>1186.06</ele>
        <time>2016-08-25T10:39:46.000Z</time>
      </trkpt>
      <trkpt lat="45.30379" lon="5.68808">
        <ele>1183.47</ele>
        <time>2016-08-25T10:39:51.000Z</time>
      </trkpt>
      <trkpt lat="45.30379" lon="5.68806">
        <ele>1180.88</ele>
        <time>2016-08-25T10:39:56.000Z</time>
      </trkpt>
      <trkpt lat="45.30382" lon="5.6881">
        <ele>1178.29</ele>
        <time>2016-08-25T10:40:01.000Z</time>
      </trkpt>
      <trkpt lat="45.30387" lon="5.68811">
        <ele>1175.52</ele>
        <time>2016-08-25T10:40:06.000Z</time>
      </trkpt>
      <trkpt lat="45.30388" lon="5.68813">
        <ele>1172.75</ele>
        <time>2016-08-25T10:40:11.000Z</time>
      </trkpt>
      <trkpt lat="45.30388" lon="5.6881">
        <ele>1169.98</ele>
        <time>2016-08-25T10:40:16.000Z</time>
      </trkpt>
      <trkpt lat="45.30393" lon="5.68806">
        <ele>1170.43</ele>
        <time>2016-08-25T10:40:21.000Z</time>
      </trkpt>
      <trkpt lat="45.30397" lon="5.68807">
        <ele>1170.87</ele>
        <time>2016-08-25T10:40:26.000Z</time>
      </trkpt>
      <trkpt lat="45.30396" lon="5.68815">
        <ele>1171.31</ele>
        <time>2016-08-25T10:40:31.000Z</time>
      </trkpt>
      <trkpt lat="45.30397" lon="5.68825">
        <ele>1166.16</ele>
        <time>2016-08-25T10:40:36.000Z</time>
      </trkpt>
      <trkpt lat="45.30402" lon="5.68828">
        <ele>1161.01</ele>
        <time>2016-08-25T10:40:41.000Z</time>
      </trkpt>
      <trkpt lat="45.30404" lon="5.68823">
        <ele>1155.86</ele>
        <time>2016-08-25T10:40:46.000Z</time>
      </trkpt>
      <trkpt lat="45.30407" lon="5.68817">
        <ele>1152.94</ele>
        <time>2016-08-25T10:40:51.000Z</time>
      </trkpt>
      <trkpt lat="45.30411" lon="5.68809">
        <ele>1150.02</ele>
        <time>2016-08-25T10:40:56.000Z</time>
      </trkpt>
      <trkpt lat="45.30415" lon="5.68805">
        <ele>1147.1</ele>
        <time>2016-08-25T10:41:01.000Z</time>
      </trkpt>
      <trkpt lat="45.30414" lon="5.68805">
        <ele>1148.84</ele>
        <time>2016-08-25T10:41:06.000Z</time>
      </trkpt>
      <trkpt lat="45.30414" lon="5.68801">
        <ele>1150.58</ele>
        <time>2016-08-25T10:41:11.000Z</time>
      </trkpt>
      <trkpt lat="45.30411" lon="5.688">
        <ele>1152.31</ele>
        <time>2016-08-25T10:41:16.000Z</time>
      </trkpt>
      <trkpt lat="45.30409" lon="5.68807">
        <ele>1151.61</ele>
        <time>2016-08-25T10:41:21.000Z</time>
      </trkpt>
      <trkpt lat="45.3041" lon="5.68808">
        <ele>1150.91</ele>
        <time>2016-08-25T10:41:26.000Z</time>
      </trkpt>
      <trkpt lat="45.3041" lon="5.68809">
        <ele>1150.21</ele>
        <time>2016-08-25T10:41:31.000Z</time>
      </trkpt>
      <trkpt lat="45.30411" lon="5.68805">
        <ele>1147.41</ele>
        <time>2016-08-25T10:41:36.000Z</time>
      </trkpt>
      <trkpt lat="45.30416" lon="5.68804">
        <ele>1144.61</ele>
        <time>2016-08-25T10:41:41.000Z</time>
      </trkpt>
      <trkpt lat="45.30421" lon="5.68807">
        <ele>1141.81</ele>
        <time>2016-08-25T10:41:46.000Z</time>
      </trkpt>
      <trkpt lat="45.30427" lon="5.68811">
        <ele>1141.1</ele>
        <time>2016-08-25T10:41:51.000Z</time>
      </trkpt>
      <trkpt lat="45.30435" lon="5.68809">
        <ele>1140.39</ele>
        <time>2016-08-25T10:41:56.000Z</time>
      </trkpt>
      <trkpt lat="45.30446" lon="5.68811">
        <ele>1139.68</ele>
        <time>2016-08-25T10:42:01.000Z</time>
      </trkpt>
      <trkpt lat="45.30456" lon="5.68811">
        <ele>1139.57</ele>
        <time>2016-08-25T10:42:06.000Z</time>
      </trkpt>
      <trkpt lat="45.30458" lon="5.68809">
        <ele>1139.46</ele>
        <time>2016-08-25T10:42:11.000Z</time>
      </trkpt>
      <trkpt lat="45.30461" lon="5.68802">
        <ele>1139.35</ele>
        <time>2016-08-25T10:42:16.000Z</time>
      </trkpt>
      <trkpt lat="45.30461" lon="5.68803">
        <ele>1139.34</ele>
        <time>2016-08-25T10:42:21.000Z</time>
      </trkpt>
      <trkpt lat="45.3046" lon="5.68806">
        <ele>1139.34</ele>
        <time>2016-08-25T10:42:26.000Z</time>
      </trkpt>
      <trkpt lat="45.30459" lon="5.68804">
        <ele>1139.34</ele>
        <time>2016-08-25T10:42:31.000Z</time>
      </trkpt>
      <trkpt lat="45.30461" lon="5.688">
        <ele>1139.52</ele>
        <time>2016-08-25T10:42:36.000Z</time>
      </trkpt>
      <trkpt lat="45.30462" lon="5.68795">
        <ele>1139.71</ele>
        <time>2016-08-25T10:42:41.000Z</time>
      </trkpt>
      <trkpt lat="45.30458" lon="5.68808">
        <ele>1139.89</ele>
        <time>2016-08-25T10:42:46.000Z</time>
      </trkpt>
      <trkpt lat="45.30454" lon="5.68815">
        <ele>1139.89</ele>
        <time>2016-08-25T10:42:51.000Z</time>
      </trkpt>
      <trkpt lat="45.30454" lon="5.68817">
        <ele>1139.9</ele>
        <time>2016-08-25T10:42:56.000Z</time>
      </trkpt>
      <trkpt lat="45.30454" lon="5.68818">
        <ele>1139.9</ele>
        <time>2016-08-25T10:43:01.000Z</time>
      </trkpt>
      <trkpt lat="45.30454" lon="5.68817">
        <ele>1140.05</ele>
        <time>2016-08-25T10:43:06.000Z</time>
      </trkpt>
      <trkpt lat="45.3045" lon="5.68814">
        <ele>1140.19</ele>
        <time>2016-08-25T10:43:11.000Z</time>
      </trkpt>
      <trkpt lat="45.30454" lon="5.68809">
        <ele>1140.34</ele>
        <time>2016-08-25T10:43:16.000Z</time>
      </trkpt>
      <trkpt lat="45.30446" lon="5.68809">
        <ele>1140.17</ele>
        <time>2016-08-25T10:43:21.000Z</time>
      </trkpt>
      <trkpt lat="45.30438" lon="5.68805">
        <ele>1140.01</ele>
        <time>2016-08-25T10:43:26.000Z</time>
      </trkpt>
      <trkpt lat="45.30439" lon="5.68797">
        <ele>1139.84</ele>
        <time>2016-08-25T10:43:31.000Z</time>
      </trkpt>
      <trkpt lat="45.30441" lon="5.68787">
        <ele>1139.69</ele>
        <time>2016-08-25T10:43:36.000Z</time>
      </trkpt>
      <trkpt lat="45.3044" lon="5.68783">
        <ele>1139.54</ele>
        <time>2016-08-25T10:43:41.000Z</time>
      </trkpt>
      <trkpt lat="45.30449" lon="5.68781">
        <ele>1139.4</ele>
        <time>2016-08-25T10:43:46.000Z</time>
      </trkpt>
      <trkpt lat="45.3046" lon="5.68784">
        <ele>1139.03</ele>
        <time>2016-08-25T10:43:51.000Z</time>
      </trkpt>
      <trkpt lat="45.30469" lon="5.68788">
        <ele>1138.67</ele>
        <time>2016-08-25T10:43:56.000Z</time>
      </trkpt>
      <trkpt lat="45.30474" lon="5.68798">
        <ele>1138.31</ele>
        <time>2016-08-25T10:44:01.000Z</time>
      </trkpt>
      <trkpt lat="45.30478" lon="5.68804">
        <ele>1138.5</ele>
        <time>2016-08-25T10:44:06.000Z</time>
      </trkpt>
      <trkpt lat="45.30481" lon="5.68808">
        <ele>1138.7</ele>
        <time>2016-08-25T10:44:11.000Z</time>
      </trkpt>
      <trkpt lat="45.30486" lon="5.68806">
        <ele>1138.89</ele>
        <time>2016-08-25T10:44:16.000Z</time>
      </trkpt>
      <trkpt lat="45.30491" lon="5.68806">
        <ele>1140.3</ele>
        <time>2016-08-25T10:44:21.000Z</time>
      </trkpt>
      <trkpt lat="45.30495" lon="5.68814">
        <ele>1141.72</ele>
        <time>2016-08-25T10:44:26.000Z</time>
      </trkpt>
      <trkpt lat="45.30504" lon="5.68811">
        <ele>1143.13</ele>
        <time>2016-08-25T10:44:31.000Z</time>
      </trkpt>
      <trkpt lat="45.30506" lon="5.68806">
        <ele>1144.41</ele>
        <time>2016-08-25T10:44:36.000Z</time>
      </trkpt>
      <trkpt lat="45.30507" lon="5.68795">
        <ele>1145.69</ele>
        <time>2016-08-25T10:44:41.000Z</time>
      </trkpt>
      <trkpt lat="45.30511" lon="5.68789">
        <ele>1146.97</ele>
        <time>2016-08-25T10:44:46.000Z</time>
      </trkpt>
      <trkpt lat="45.30517" lon="5.68794">
        <ele>1147.85</ele>
        <time>2016-08-25T10:44:51.000Z</time>
      </trkpt>
      <trkpt lat="45.30523" lon="5.68794">
        <ele>1148.73</ele>
        <time>2016-08-25T10:44:56.000Z</time>
      </trkpt>
      <trkpt lat="45.30528" lon="5.68792">
        <ele>1149.62</ele>
        <time>2016-08-25T10:45:01.000Z</time>
      </trkpt>
      <trkpt lat="45.30525" lon="5.68791">
        <ele>1150.14</ele>
        <time>2016-08-25T10:45:06.000Z</time>
      </trkpt>
      <trkpt lat="45.30523" lon="5.68781">
        <ele>1150.66</ele>
        <time>2016-08-25T10:45:11.000Z</time>
      </trkpt>
      <trkpt lat="45.30524" lon="5.68774">
        <ele>1151.19</ele>
        <time>2016-08-25T10:45:16.000Z</time>
      </trkpt>
      <trkpt lat="45.30526" lon="5.68777">
        <ele>1151.33</ele>
        <time>2016-08-25T10:45:21.000Z</time>
      </trkpt>
      <trkpt lat="45.30534" lon="5.68775">
        <ele>1151.47</ele>
        <time>2016-08-25T10:45:26.000Z</time>
      </trkpt>
      <trkpt lat="45.3053" lon="5.68775">
        <ele>1151.62</ele>
        <time>2016-08-25T10:45:31.000Z</time>
      </trkpt>
      <trkpt lat="45.30527" lon="5.68773">
        <ele>1153.05</ele>
        <time>2016-08-25T10:45:36.000Z</time>
      </trkpt>
      <trkpt lat="45.30527" lon="5.68768">
        <ele>1154.48</ele>
        <time>2016-08-25T10:45:41.000Z</time>
      </trkpt>
      <trkpt lat="45.30532" lon="5.68763">
        <ele>1155.91</ele>
        <time>2016-08-25T10:45:46.000Z</time>
      </trkpt>
      <trkpt lat="45.30537" lon="5.68761">
        <ele>1157.28</ele>
        <time>2016-08-25T10:45:51.000Z</time>
      </trkpt>
      <trkpt lat="45.30542" lon="5.68761">
        <ele>1158.64</ele>
        <time>2016-08-25T10:45:56.000Z</time>
      </trkpt>
      <trkpt lat="45.30548" lon="5.68764">
        <ele>1160.01</ele>
        <time>2016-08-25T10:46:01.000Z</time>
      </trkpt>
      <trkpt lat="45.30552" lon="5.68765">
        <ele>1161.48</ele>
        <time>2016-08-25T10:46:06.000Z</time>
      </trkpt>
      <trkpt lat="45.30556" lon="5.68764">
        <ele>1162.95</ele>
        <time>2016-08-25T10:46:11.000Z</time>
      </trkpt>
      <trkpt lat="45.30559" lon="5.68766">
        <ele>1164.42</ele>
        <time>2016-08-25T10:46:16.000Z</time>
      </trkpt>
      <trkpt lat="45.30565" lon="5.68772">
        <ele>1166</ele>
        <time>2016-08-25T10:46:21.000Z</time>
      </trkpt>
      <trkpt lat="45.30571" lon="5.68781">
        <ele>1167.59</ele>
        <time>2016-08-25T10:46:26.000Z</time>
      </trkpt>
      <trkpt lat="45.30577" lon="5.68785">
        <ele>1169.17</ele>
        <time>2016-08-25T10:46:31.000Z</time>
      </trkpt>
      <trkpt lat="45.30583" lon="5.6879">
        <ele>1169.84</ele>
        <time>2016-08-25T10:46:36.000Z</time>
      </trkpt>
      <trkpt lat="45.30589" lon="5.68795">
        <ele>1170.52</ele>
        <time>2016-08-25T10:46:41.000Z</time>
      </trkpt>
      <trkpt lat="45.30593" lon="5.68802">
        <ele>1171.19</ele>
        <time>2016-08-25T10:46:46.000Z</time>
      </trkpt>
      <trkpt lat="45.30594" lon="5.68808">
        <ele>1172.47</ele>
        <time>2016-08-25T10:46:51.000Z</time>
      </trkpt>
      <trkpt lat="45.30592" lon="5.68801">
        <ele>1173.75</ele>
        <time>2016-08-25T10:46:56.000Z</time>
      </trkpt>
      <trkpt lat="45.30595" lon="5.68793">
        <ele>1175.03</ele>
        <time>2016-08-25T10:47:01.000Z</time>
      </trkpt>
      <trkpt lat="45.30601" lon="5.68799">
        <ele>1176.35</ele>
        <time>2016-08-25T10:47:06.000Z</time>
      </trkpt>
      <trkpt lat="45.30604" lon="5.68809">
        <ele>1177.67</ele>
        <time>2016-08-25T10:47:11.000Z</time>
      </trkpt>
      <trkpt lat="45.30608" lon="5.68818">
        <ele>1178.99</ele>
        <time>2016-08-25T10:47:16.000Z</time>
      </trkpt>
      <trkpt lat="45.30615" lon="5.68826">
        <ele>1178.77</ele>
        <time>2016-08-25T10:47:21.000Z</time>
      </trkpt>
      <trkpt lat="45.30622" lon="5.68832">
        <ele>1178.55</ele>
        <time>2016-08-25T10:47:26.000Z</time>
      </trkpt>
      <trkpt lat="45.3062" lon="5.68828">
        <ele>1178.34</ele>
        <time>2016-08-25T10:47:31.000Z</time>
      </trkpt>
      <trkpt lat="45.30616" lon="5.6882">
        <ele>1179.09</ele>
        <time>2016-08-25T10:47:36.000Z</time>
      </trkpt>
      <trkpt lat="45.30613" lon="5.68812">
        <ele>1179.84</ele>
        <time>2016-08-25T10:47:41.000Z</time>
      </trkpt>
      <trkpt lat="45.30614" lon="5.68803">
        <ele>1180.59</ele>
        <time>2016-08-25T10:47:46.000Z</time>
      </trkpt>
      <trkpt lat="45.30616" lon="5.68801">
        <ele>1180.57</ele>
        <time>2016-08-25T10:47:51.000Z</time>
      </trkpt>
      <trkpt lat="45.30617" lon="5.68801">
        <ele>1180.55</ele>
        <time>2016-08-25T10:47:56.000Z</time>
      </trkpt>
      <trkpt lat="45.30617" lon="5.68801">
        <ele>1180.53</ele>
        <time>2016-08-25T10:48:01.000Z</time>
      </trkpt>
      <trkpt lat="45.30617" lon="5.68802">
        <ele>1180.89</ele>
        <time>2016-08-25T10:48:06.000Z</time>
      </trkpt>
      <trkpt lat="45.30616" lon="5.68802">
        <ele>1181.25</ele>
        <time>2016-08-25T10:48:11.000Z</time>
      </trkpt>
      <trkpt lat="45.30617" lon="5.68802">
        <ele>1181.61</ele>
        <time>2016-08-25T10:48:16.000Z</time>
      </trkpt>
      <trkpt lat="45.30619" lon="5.68801">
        <ele>1181.84</ele>
        <time>2016-08-25T10:48:21.000Z</time>
      </trkpt>
      <trkpt lat="45.3062" lon="5.688">
        <ele>1182.07</ele>
        <time>2016-08-25T10:48:26.000Z</time>
      </trkpt>
      <trkpt lat="45.3062" lon="5.688">
        <ele>1182.3</ele>
        <time>2016-08-25T10:48:31.000Z</time>
      </trkpt>
      <trkpt lat="45.3062" lon="5.68799">
        <ele>1182.28</ele>
        <time>2016-08-25T10:48:36.000Z</time>
      </trkpt>
      <trkpt lat="45.3062" lon="5.68799">
        <ele>1182.26</ele>
        <time>2016-08-25T10:48:41.000Z</time>
      </trkpt>
      <trkpt lat="45.30619" lon="5.68799">
        <ele>1182.24</ele>
        <time>2016-08-25T10:48:46.000Z</time>
      </trkpt>
      <trkpt lat="45.3062" lon="5.68798">
        <ele>1182.03</ele>
        <time>2016-08-25T10:48:51.000Z</time>
      </trkpt>
      <trkpt lat="45.3062" lon="5.68798">
        <ele>1181.81</ele>
        <time>2016-08-25T10:48:56.000Z</time>
      </trkpt>
      <trkpt lat="45.30619" lon="5.68797">
        <ele>1181.59</ele>
        <time>2016-08-25T10:49:01.000Z</time>
      </trkpt>
      <trkpt lat="45.30617" lon="5.68797">
        <ele>1180.64</ele>
        <time>2016-08-25T10:49:06.000Z</time>
      </trkpt>
      <trkpt lat="45.30617" lon="5.68797">
        <ele>1179.69</ele>
        <time>2016-08-25T10:49:11.000Z</time>
      </trkpt>
      <trkpt lat="45.30614" lon="5.68798">
        <ele>1178.73</ele>
        <time>2016-08-25T10:49:16.000Z</time>
      </trkpt>
      <trkpt lat="45.30611" lon="5.68798">
        <ele>1179.08</ele>
        <time>2016-08-25T10:49:21.000Z</time>
      </trkpt>
      <trkpt lat="45.30609" lon="5.68798">
        <ele>1179.42</ele>
        <time>2016-08-25T10:49:26.000Z</time>
      </trkpt>
      <trkpt lat="45.30611" lon="5.688">
        <ele>1179.76</ele>
        <time>2016-08-25T10:49:31.000Z</time>
      </trkpt>
      <trkpt lat="45.30615" lon="5.68804">
        <ele>1180.16</ele>
        <time>2016-08-25T10:49:36.000Z</time>
      </trkpt>
      <trkpt lat="45.30617" lon="5.68801">
        <ele>1180.55</ele>
        <time>2016-08-25T10:49:41.000Z</time>
      </trkpt>
      <trkpt lat="45.30618" lon="5.68805">
        <ele>1180.95</ele>
        <time>2016-08-25T10:49:46.000Z</time>
      </trkpt>
      <trkpt lat="45.30619" lon="5.68805">
        <ele>1182.68</ele>
        <time>2016-08-25T10:49:51.000Z</time>
      </trkpt>
      <trkpt lat="45.30622" lon="5.68809">
        <ele>1184.41</ele>
        <time>2016-08-25T10:49:56.000Z</time>
      </trkpt>
      <trkpt lat="45.30631" lon="5.68816">
        <ele>1186.14</ele>
        <time>2016-08-25T10:50:01.000Z</time>
      </trkpt>
      <trkpt lat="45.30637" lon="5.68822">
        <ele>1189.34</ele>
        <time>2016-08-25T10:50:06.000Z</time>
      </trkpt>
      <trkpt lat="45.30646" lon="5.68821">
        <ele>1192.53</ele>
        <time>2016-08-25T10:50:11.000Z</time>
      </trkpt>
      <trkpt lat="45.30654" lon="5.6882">
        <ele>1195.73</ele>
        <time>2016-08-25T10:50:16.000Z</time>
      </trkpt>
      <trkpt lat="45.30663" lon="5.68826">
        <ele>1198.88</ele>
        <time>2016-08-25T10:50:21.000Z</time>
      </trkpt>
      <trkpt lat="45.3067" lon="5.6883">
        <ele>1202.03</ele>
        <time>2016-08-25T10:50:26.000Z</time>
      </trkpt>
      <trkpt lat="45.30679" lon="5.68833">
        <ele>1205.18</ele>
        <time>2016-08-25T10:50:31.000Z</time>
      </trkpt>
      <trkpt lat="45.30687" lon="5.68833">
        <ele>1206.93</ele>
        <time>2016-08-25T10:50:36.000Z</time>
      </trkpt>
      <trkpt lat="45.30694" lon="5.68831">
        <ele>1208.67</ele>
        <time>2016-08-25T10:50:41.000Z</time>
      </trkpt>
      <trkpt lat="45.30697" lon="5.68836">
        <ele>1210.42</ele>
        <time>2016-08-25T10:50:46.000Z</time>
      </trkpt>
      <trkpt lat="45.307" lon="5.68839">
        <ele>1211.91</ele>
        <time>2016-08-25T10:50:51.000Z</time>
      </trkpt>
      <trkpt lat="45.30704" lon="5.68845">
        <ele>1213.4</ele>
        <time>2016-08-25T10:50:56.000Z</time>
      </trkpt>
      <trkpt lat="45.30706" lon="5.68848">
        <ele>1214.9</ele>
        <time>2016-08-25T10:51:01.000Z</time>
      </trkpt>
      <trkpt lat="45.30709" lon="5.68848">
        <ele>1215.24</ele>
        <time>2016-08-25T10:51:06.000Z</time>
      </trkpt>
      <trkpt lat="45.30711" lon="5.68849">
        <ele>1215.58</ele>
        <time>2016-08-25T10:51:11.000Z</time>
      </trkpt>
      <trkpt lat="45.30708" lon="5.68853">
        <ele>1215.92</ele>
        <time>2016-08-25T10:51:16.000Z</time>
      </trkpt>
      <trkpt lat="45.30707" lon="5.6886">
        <ele>1216.76</ele>
        <time>2016-08-25T10:51:21.000Z</time>
      </trkpt>
      <trkpt lat="45.30708" lon="5.68861">
        <ele>1217.61</ele>
        <time>2016-08-25T10:51:26.000Z</time>
      </trkpt>
      <trkpt lat="45.30711" lon="5.68864">
        <ele>1218.46</ele>
        <time>2016-08-25T10:51:31.000Z</time>
      </trkpt>
      <trkpt lat="45.30713" lon="5.68864">
        <ele>1219.19</ele>
        <time>2016-08-25T10:51:36.000Z</time>
      </trkpt>
      <trkpt lat="45.30715" lon="5.68865">
        <ele>1219.92</ele>
        <time>2016-08-25T10:51:41.000Z</time>
      </trkpt>
      <trkpt lat="45.30717" lon="5.68864">
        <ele>1220.66</ele>
        <time>2016-08-25T10:51:46.000Z</time>
      </trkpt>
      <trkpt lat="45.30719" lon="5.68866">
        <ele>1223.01</ele>
        <time>2016-08-25T10:51:51.000Z</time>
      </trkpt>
      <trkpt lat="45.30721" lon="5.68872">
        <ele>1225.37</ele>
        <time>2016-08-25T10:51:56.000Z</time>
      </trkpt>
      <trkpt lat="45.30726" lon="5.68881">
        <ele>1227.73</ele>
        <time>2016-08-25T10:52:01.000Z</time>
      </trkpt>
      <trkpt lat="45.30729" lon="5.68888">
        <ele>1228.05</ele>
        <time>2016-08-25T10:52:06.000Z</time>
      </trkpt>
      <trkpt lat="45.30731" lon="5.68894">
        <ele>1228.38</ele>
        <time>2016-08-25T10:52:11.000Z</time>
      </trkpt>
      <trkpt lat="45.30727" lon="5.68893">
        <ele>1228.7</ele>
        <time>2016-08-25T10:52:16.000Z</time>
      </trkpt>
      <trkpt lat="45.30724" lon="5.68894">
        <ele>1228.17</ele>
        <time>2016-08-25T10:52:21.000Z</time>
      </trkpt>
      <trkpt lat="45.30722" lon="5.68894">
        <ele>1227.64</ele>
        <time>2016-08-25T10:52:26.000Z</time>
      </trkpt>
      <trkpt lat="45.30722" lon="5.68894">
        <ele>1227.11</ele>
        <time>2016-08-25T10:52:31.000Z</time>
      </trkpt>
      <trkpt lat="45.30721" lon="5.68893">
        <ele>1226.55</ele>
        <time>2016-08-25T10:52:36.000Z</time>
      </trkpt>
      <trkpt lat="45.30721" lon="5.68892">
        <ele>1225.99</ele>
        <time>2016-08-25T10:52:41.000Z</time>
      </trkpt>
      <trkpt lat="45.3072" lon="5.6889">
        <ele>1225.43</ele>
        <time>2016-08-25T10:52:46.000Z</time>
      </trkpt>
      <trkpt lat="45.30721" lon="5.68889">
        <ele>1225.34</ele>
        <time>2016-08-25T10:52:51.000Z</time>
      </trkpt>
      <trkpt lat="45.30721" lon="5.6889">
        <ele>1225.25</ele>
        <time>2016-08-25T10:52:56.000Z</time>
      </trkpt>
      <trkpt lat="45.3072" lon="5.68889">
        <ele>1225.16</ele>
        <time>2016-08-25T10:53:01.000Z</time>
      </trkpt>
      <trkpt lat="45.30718" lon="5.68891">
        <ele>1223.96</ele>
        <time>2016-08-25T10:53:06.000Z</time>
      </trkpt>
      <trkpt lat="45.30716" lon="5.68898">
        <ele>1222.76</ele>
        <time>2016-08-25T10:53:11.000Z</time>
      </trkpt>
      <trkpt lat="45.30707" lon="5.68901">
        <ele>1221.56</ele>
        <time>2016-08-25T10:53:16.000Z</time>
      </trkpt>
      <trkpt lat="45.30697" lon="5.68898">
        <ele>1217.32</ele>
        <time>2016-08-25T10:53:21.000Z</time>
      </trkpt>
      <trkpt lat="45.30688" lon="5.68897">
        <ele>1213.08</ele>
        <time>2016-08-25T10:53:26.000Z</time>
      </trkpt>
      <trkpt lat="45.30675" lon="5.68895">
        <ele>1208.84</ele>
        <time>2016-08-25T10:53:31.000Z</time>
      </trkpt>
      <trkpt lat="45.30663" lon="5.68895">
        <ele>1206.22</ele>
        <time>2016-08-25T10:53:36.000Z</time>
      </trkpt>
      <trkpt lat="45.30651" lon="5.68897">
        <ele>1203.59</ele>
        <time>2016-08-25T10:53:41.000Z</time>
      </trkpt>
      <trkpt lat="45.30642" lon="5.68899">
        <ele>1200.97</ele>
        <time>2016-08-25T10:53:46.000Z</time>
      </trkpt>
      <trkpt lat="45.3063" lon="5.68903">
        <ele>1201.43</ele>
        <time>2016-08-25T10:53:51.000Z</time>
      </trkpt>
      <trkpt lat="45.3062" lon="5.68907">
        <ele>1201.88</ele>
        <time>2016-08-25T10:53:56.000Z</time>
      </trkpt>
      <trkpt lat="45.30614" lon="5.68917">
        <ele>1202.34</ele>
        <time>2016-08-25T10:54:01.000Z</time>
      </trkpt>
      <trkpt lat="45.30608" lon="5.68925">
        <ele>1203.98</ele>
        <time>2016-08-25T10:54:06.000Z</time>
      </trkpt>
      <trkpt lat="45.30597" lon="5.68935">
        <ele>1205.62</ele>
        <time>2016-08-25T10:54:11.000Z</time>
      </trkpt>
      <trkpt lat="45.30589" lon="5.68944">
        <ele>1207.26</ele>
        <time>2016-08-25T10:54:16.000Z</time>
      </trkpt>
      <trkpt lat="45.30582" lon="5.68956">
        <ele>1210.21</ele>
        <time>2016-08-25T10:54:21.000Z</time>
      </trkpt>
      <trkpt lat="45.30574" lon="5.68971">
        <ele>1213.16</ele>
        <time>2016-08-25T10:54:26.000Z</time>
      </trkpt>
      <trkpt lat="45.30562" lon="5.68984">
        <ele>1216.11</ele>
        <time>2016-08-25T10:54:31.000Z</time>
      </trkpt>
      <trkpt lat="45.30552" lon="5.68993">
        <ele>1218.04</ele>
        <time>2016-08-25T10:54:36.000Z</time>
      </trkpt>
      <trkpt lat="45.30546" lon="5.69004">
        <ele>1219.96</ele>
        <time>2016-08-25T10:54:41.000Z</time>
      </trkpt>
      <trkpt lat="45.30544" lon="5.69008">
        <ele>1221.88</ele>
        <time>2016-08-25T10:54:46.000Z</time>
      </trkpt>
      <trkpt lat="45.30542" lon="5.69007">
        <ele>1223.29</ele>
        <time>2016-08-25T10:54:51.000Z</time>
      </trkpt>
      <trkpt lat="45.30542" lon="5.69014">
        <ele>1224.7</ele>
        <time>2016-08-25T10:54:56.000Z</time>
      </trkpt>
      <trkpt lat="45.30539" lon="5.69017">
        <ele>1226.11</ele>
        <time>2016-08-25T10:55:01.000Z</time>
      </trkpt>
      <trkpt lat="45.30539" lon="5.69017">
        <ele>1226.26</ele>
        <time>2016-08-25T10:55:06.000Z</time>
      </trkpt>
      <trkpt lat="45.3054" lon="5.69018">
        <ele>1226.4</ele>
        <time>2016-08-25T10:55:11.000Z</time>
      </trkpt>
      <trkpt lat="45.30541" lon="5.69018">
        <ele>1226.55</ele>
        <time>2016-08-25T10:55:16.000Z</time>
      </trkpt>
      <trkpt lat="45.30541" lon="5.69018">
        <ele>1226.66</ele>
        <time>2016-08-25T10:55:21.000Z</time>
      </trkpt>
      <trkpt lat="45.30541" lon="5.69018">
        <ele>1226.76</ele>
        <time>2016-08-25T10:55:26.000Z</time>
      </trkpt>
      <trkpt lat="45.30541" lon="5.69018">
        <ele>1226.87</ele>
        <time>2016-08-25T10:55:31.000Z</time>
      </trkpt>
      <trkpt lat="45.30542" lon="5.69019">
        <ele>1227.42</ele>
        <time>2016-08-25T10:55:36.000Z</time>
      </trkpt>
      <trkpt lat="45.3054" lon="5.69022">
        <ele>1227.97</ele>
        <time>2016-08-25T10:55:41.000Z</time>
      </trkpt>
      <trkpt lat="45.30538" lon="5.69022">
        <ele>1228.52</ele>
        <time>2016-08-25T10:55:46.000Z</time>
      </trkpt>
      <trkpt lat="45.30538" lon="5.69023">
        <ele>1228.31</ele>
        <time>2016-08-25T10:55:51.000Z</time>
      </trkpt>
      <trkpt lat="45.30538" lon="5.69022">
        <ele>1228.1</ele>
        <time>2016-08-25T10:55:56.000Z</time>
      </trkpt>
      <trkpt lat="45.30536" lon="5.69023">
        <ele>1227.88</ele>
        <time>2016-08-25T10:56:01.000Z</time>
      </trkpt>
      <trkpt lat="45.30534" lon="5.69022">
        <ele>1224.93</ele>
        <time>2016-08-25T10:56:06.000Z</time>
      </trkpt>
      <trkpt lat="45.30531" lon="5.69022">
        <ele>1221.97</ele>
        <time>2016-08-25T10:56:11.000Z</time>
      </trkpt>
      <trkpt lat="45.30526" lon="5.69016">
        <ele>1219.01</ele>
        <time>2016-08-25T10:56:16.000Z</time>
      </trkpt>
      <trkpt lat="45.30525" lon="5.69004">
        <ele>1213.92</ele>
        <time>2016-08-25T10:56:21.000Z</time>
      </trkpt>
      <trkpt lat="45.30519" lon="5.68996">
        <ele>1208.84</ele>
        <time>2016-08-25T10:56:26.000Z</time>
      </trkpt>
      <trkpt lat="45.30516" lon="5.68985">
        <ele>1203.75</ele>
        <time>2016-08-25T10:56:31.000Z</time>
      </trkpt>
      <trkpt lat="45.30515" lon="5.68972">
        <ele>1199.2</ele>
        <time>2016-08-25T10:56:36.000Z</time>
      </trkpt>
      <trkpt lat="45.30514" lon="5.68963">
        <ele>1194.65</ele>
        <time>2016-08-25T10:56:41.000Z</time>
      </trkpt>
      <trkpt lat="45.30509" lon="5.68952">
        <ele>1190.11</ele>
        <time>2016-08-25T10:56:46.000Z</time>
      </trkpt>
      <trkpt lat="45.30507" lon="5.68943">
        <ele>1188.83</ele>
        <time>2016-08-25T10:56:51.000Z</time>
      </trkpt>
      <trkpt lat="45.30505" lon="5.68936">
        <ele>1187.55</ele>
        <time>2016-08-25T10:56:56.000Z</time>
      </trkpt>
      <trkpt lat="45.30505" lon="5.68935">
        <ele>1186.27</ele>
        <time>2016-08-25T10:57:01.000Z</time>
      </trkpt>
      <trkpt lat="45.30505" lon="5.68935">
        <ele>1185.04</ele>
        <time>2016-08-25T10:57:06.000Z</time>
      </trkpt>
      <trkpt lat="45.30503" lon="5.68936">
        <ele>1183.8</ele>
        <time>2016-08-25T10:57:11.000Z</time>
      </trkpt>
      <trkpt lat="45.30496" lon="5.68932">
        <ele>1182.57</ele>
        <time>2016-08-25T10:57:16.000Z</time>
      </trkpt>
      <trkpt lat="45.30483" lon="5.68929">
        <ele>1185.64</ele>
        <time>2016-08-25T10:57:21.000Z</time>
      </trkpt>
      <trkpt lat="45.3047" lon="5.68928">
        <ele>1188.72</ele>
        <time>2016-08-25T10:57:26.000Z</time>
      </trkpt>
      <trkpt lat="45.30459" lon="5.6893">
        <ele>1191.8</ele>
        <time>2016-08-25T10:57:31.000Z</time>
      </trkpt>
      <trkpt lat="45.30441" lon="5.68933">
        <ele>1200.62</ele>
        <time>2016-08-25T10:57:36.000Z</time>
      </trkpt>
      <trkpt lat="45.30428" lon="5.68937">
        <ele>1209.43</ele>
        <time>2016-08-25T10:57:41.000Z</time>
      </trkpt>
      <trkpt lat="45.30417" lon="5.68945">
        <ele>1218.25</ele>
        <time>2016-08-25T10:57:46.000Z</time>
      </trkpt>
      <trkpt lat="45.30407" lon="5.68949">
        <ele>1229.97</ele>
        <time>2016-08-25T10:57:51.000Z</time>
      </trkpt>
      <trkpt lat="45.30398" lon="5.68953">
        <ele>1241.68</ele>
        <time>2016-08-25T10:57:56.000Z</time>
      </trkpt>
      <trkpt lat="45.30394" lon="5.6896">
        <ele>1253.4</ele>
        <time>2016-08-25T10:58:01.000Z</time>
      </trkpt>
      <trkpt lat="45.30385" lon="5.68966">
        <ele>1258.18</ele>
        <time>2016-08-25T10:58:06.000Z</time>
      </trkpt>
      <trkpt lat="45.30378" lon="5.68971">
        <ele>1262.97</ele>
        <time>2016-08-25T10:58:11.000Z</time>
      </trkpt>
      <trkpt lat="45.30377" lon="5.68972">
        <ele>1267.75</ele>
        <time>2016-08-25T10:58:16.000Z</time>
      </trkpt>
      <trkpt lat="45.30377" lon="5.68974">
        <ele>1272.28</ele>
        <time>2016-08-25T10:58:21.000Z</time>
      </trkpt>
      <trkpt lat="45.30376" lon="5.68976">
        <ele>1276.82</ele>
        <time>2016-08-25T10:58:26.000Z</time>
      </trkpt>
      <trkpt lat="45.30374" lon="5.68984">
        <ele>1281.36</ele>
        <time>2016-08-25T10:58:31.000Z</time>
      </trkpt>
      <trkpt lat="45.30373" lon="5.68991">
        <ele>1287.24</ele>
        <time>2016-08-25T10:58:36.000Z</time>
      </trkpt>
      <trkpt lat="45.30375" lon="5.69004">
        <ele>1293.12</ele>
        <time>2016-08-25T10:58:41.000Z</time>
      </trkpt>
      <trkpt lat="45.30378" lon="5.69023">
        <ele>1299</ele>
        <time>2016-08-25T10:58:46.000Z</time>
      </trkpt>
      <trkpt lat="45.30378" lon="5.69041">
        <ele>1312.41</ele>
        <time>2016-08-25T10:58:51.000Z</time>
      </trkpt>
      <trkpt lat="45.30375" lon="5.69057">
        <ele>1325.81</ele>
        <time>2016-08-25T10:58:56.000Z</time>
      </trkpt>
      <trkpt lat="45.30371" lon="5.69068">
        <ele>1339.22</ele>
        <time>2016-08-25T10:59:01.000Z</time>
      </trkpt>
      <trkpt lat="45.30361" lon="5.69076">
        <ele>1347.88</ele>
        <time>2016-08-25T10:59:06.000Z</time>
      </trkpt>
      <trkpt lat="45.30351" lon="5.69086">
        <ele>1356.54</ele>
        <time>2016-08-25T10:59:11.000Z</time>
      </trkpt>
      <trkpt lat="45.30345" lon="5.69096">
        <ele>1365.21</ele>
        <time>2016-08-25T10:59:16.000Z</time>
      </trkpt>
      <trkpt lat="45.30338" lon="5.691">
        <ele>1364.07</ele>
        <time>2016-08-25T10:59:21.000Z</time>
      </trkpt>
      <trkpt lat="45.30329" lon="5.69101">
        <ele>1362.94</ele>
        <time>2016-08-25T10:59:26.000Z</time>
      </trkpt>
      <trkpt lat="45.3032" lon="5.69104">
        <ele>1361.8</ele>
        <time>2016-08-25T10:59:31.000Z</time>
      </trkpt>
      <trkpt lat="45.3031" lon="5.69106">
        <ele>1356.77</ele>
        <time>2016-08-25T10:59:36.000Z</time>
      </trkpt>
      <trkpt lat="45.30296" lon="5.69098">
        <ele>1351.73</ele>
        <time>2016-08-25T10:59:41.000Z</time>
      </trkpt>
      <trkpt lat="45.30281" lon="5.69098">
        <ele>1346.69</ele>
        <time>2016-08-25T10:59:46.000Z</time>
      </trkpt>
      <trkpt lat="45.30272" lon="5.69102">
        <ele>1343.85</ele>
        <time>2016-08-25T10:59:51.000Z</time>
      </trkpt>
      <trkpt lat="45.30263" lon="5.69104">
        <ele>1341.01</ele>
        <time>2016-08-25T10:59:56.000Z</time>
      </trkpt>
      <trkpt lat="45.30253" lon="5.69105">
        <ele>1338.17</ele>
        <time>2016-08-25T11:00:01.000Z</time>
      </trkpt>
      <trkpt lat="45.30247" lon="5.69108">
        <ele>1338.13</ele>
        <time>2016-08-25T11:00:06.000Z</time>
      </trkpt>
      <trkpt lat="45.30247" lon="5.69108">
        <ele>1338.1</ele>
        <time>2016-08-25T11:00:11.000Z</time>
      </trkpt>
      <trkpt lat="45.30247" lon="5.69109">
        <ele>1338.06</ele>
        <time>2016-08-25T11:00:16.000Z</time>
      </trkpt>
      <trkpt lat="45.30245" lon="5.69109">
        <ele>1330.07</ele>
        <time>2016-08-25T11:00:21.000Z</time>
      </trkpt>
      <trkpt lat="45.30241" lon="5.69106">
        <ele>1322.08</ele>
        <time>2016-08-25T11:00:26.000Z</time>
      </trkpt>
      <trkpt lat="45.30238" lon="5.69098">
        <ele>1314.09</ele>
        <time>2016-08-25T11:00:31.000Z</time>
      </trkpt>
      <trkpt lat="45.30228" lon="5.69091">
        <ele>1307.31</ele>
        <time>2016-08-25T11:00:36.000Z</time>
      </trkpt>
      <trkpt lat="45.30221" lon="5.69084">
        <ele>1300.53</ele>
        <time>2016-08-25T11:00:41.000Z</time>
      </trkpt>
      <trkpt lat="45.30213" lon="5.6908">
        <ele>1293.75</ele>
        <time>2016-08-25T11:00:46.000Z</time>
      </trkpt>
      <trkpt lat="45.30208" lon="5.69076">
        <ele>1289.77</ele>
        <time>2016-08-25T11:00:51.000Z</time>
      </trkpt>
      <trkpt lat="45.30202" lon="5.69067">
        <ele>1285.79</ele>
        <time>2016-08-25T11:00:56.000Z</time>
      </trkpt>
      <trkpt lat="45.30198" lon="5.69065">
        <ele>1281.82</ele>
        <time>2016-08-25T11:01:01.000Z</time>
      </trkpt>
      <trkpt lat="45.30197" lon="5.69062">
        <ele>1281.5</ele>
        <time>2016-08-25T11:01:06.000Z</time>
      </trkpt>
      <trkpt lat="45.30199" lon="5.69061">
        <ele>1281.18</ele>
        <time>2016-08-25T11:01:11.000Z</time>
      </trkpt>
      <trkpt lat="45.30199" lon="5.69061">
        <ele>1280.86</ele>
        <time>2016-08-25T11:01:16.000Z</time>
      </trkpt>
      <trkpt lat="45.30199" lon="5.69061">
        <ele>1270.71</ele>
        <time>2016-08-25T11:01:21.000Z</time>
      </trkpt>
      <trkpt lat="45.30191" lon="5.69053">
        <ele>1260.56</ele>
        <time>2016-08-25T11:01:26.000Z</time>
      </trkpt>
      <trkpt lat="45.30187" lon="5.69042">
        <ele>1250.42</ele>
        <time>2016-08-25T11:01:31.000Z</time>
      </trkpt>
      <trkpt lat="45.30186" lon="5.69025">
        <ele>1243.4</ele>
        <time>2016-08-25T11:01:36.000Z</time>
      </trkpt>
      <trkpt lat="45.30179" lon="5.69015">
        <ele>1236.38</ele>
        <time>2016-08-25T11:01:41.000Z</time>
      </trkpt>
      <trkpt lat="45.30178" lon="5.69004">
        <ele>1229.36</ele>
        <time>2016-08-25T11:01:46.000Z</time>
      </trkpt>
      <trkpt lat="45.30179" lon="5.68992">
        <ele>1221.28</ele>
        <time>2016-08-25T11:01:51.000Z</time>
      </trkpt>
      <trkpt lat="45.30179" lon="5.68976">
        <ele>1213.2</ele>
        <time>2016-08-25T11:01:56.000Z</time>
      </trkpt>
      <trkpt lat="45.30176" lon="5.68961">
        <ele>1205.12</ele>
        <time>2016-08-25T11:02:01.000Z</time>
      </trkpt>
      <trkpt lat="45.30175" lon="5.68951">
        <ele>1199.74</ele>
        <time>2016-08-25T11:02:06.000Z</time>
      </trkpt>
      <trkpt lat="45.30177" lon="5.68942">
        <ele>1194.36</ele>
        <time>2016-08-25T11:02:11.000Z</time>
      </trkpt>
      <trkpt lat="45.30178" lon="5.68928">
        <ele>1188.98</ele>
        <time>2016-08-25T11:02:16.000Z</time>
      </trkpt>
      <trkpt lat="45.30173" lon="5.68912">
        <ele>1185.14</ele>
        <time>2016-08-25T11:02:21.000Z</time>
      </trkpt>
      <trkpt lat="45.30169" lon="5.68897">
        <ele>1181.29</ele>
        <time>2016-08-25T11:02:26.000Z</time>
      </trkpt>
      <trkpt lat="45.30165" lon="5.68885">
        <ele>1177.45</ele>
        <time>2016-08-25T11:02:31.000Z</time>
      </trkpt>
      <trkpt lat="45.30155" lon="5.68874">
        <ele>1180</ele>
        <time>2016-08-25T11:02:36.000Z</time>
      </trkpt>
      <trkpt lat="45.30144" lon="5.68869">
        <ele>1182.55</ele>
        <time>2016-08-25T11:02:41.000Z</time>
      </trkpt>
      <trkpt lat="45.30134" lon="5.68867">
        <ele>1185.1</ele>
        <time>2016-08-25T11:02:46.000Z</time>
      </trkpt>
      <trkpt lat="45.30125" lon="5.68865">
        <ele>1188.6</ele>
        <time>2016-08-25T11:02:51.000Z</time>
      </trkpt>
      <trkpt lat="45.30115" lon="5.6886">
        <ele>1192.11</ele>
        <time>2016-08-25T11:02:56.000Z</time>
      </trkpt>
      <trkpt lat="45.30106" lon="5.68855">
        <ele>1195.61</ele>
        <time>2016-08-25T11:03:01.000Z</time>
      </trkpt>
      <trkpt lat="45.30095" lon="5.68854">
        <ele>1198.34</ele>
        <time>2016-08-25T11:03:06.000Z</time>
      </trkpt>
      <trkpt lat="45.30083" lon="5.68852">
        <ele>1201.07</ele>
        <time>2016-08-25T11:03:11.000Z</time>
      </trkpt>
      <trkpt lat="45.30076" lon="5.68848">
        <ele>1203.79</ele>
        <time>2016-08-25T11:03:16.000Z</time>
      </trkpt>
      <trkpt lat="45.30068" lon="5.6884">
        <ele>1201.52</ele>
        <time>2016-08-25T11:03:21.000Z</time>
      </trkpt>
      <trkpt lat="45.30061" lon="5.68825">
        <ele>1199.25</ele>
        <time>2016-08-25T11:03:26.000Z</time>
      </trkpt>
      <trkpt lat="45.30061" lon="5.68811">
        <ele>1196.98</ele>
        <time>2016-08-25T11:03:31.000Z</time>
      </trkpt>
      <trkpt lat="45.30059" lon="5.68799">
        <ele>1195.94</ele>
        <time>2016-08-25T11:03:36.000Z</time>
      </trkpt>
      <trkpt lat="45.30055" lon="5.68784">
        <ele>1194.9</ele>
        <time>2016-08-25T11:03:41.000Z</time>
      </trkpt>
      <trkpt lat="45.30051" lon="5.6877">
        <ele>1193.86</ele>
        <time>2016-08-25T11:03:46.000Z</time>
      </trkpt>
      <trkpt lat="45.30044" lon="5.68752">
        <ele>1192.28</ele>
        <time>2016-08-25T11:03:51.000Z</time>
      </trkpt>
      <trkpt lat="45.30042" lon="5.68737">
        <ele>1190.7</ele>
        <time>2016-08-25T11:03:56.000Z</time>
      </trkpt>
      <trkpt lat="45.30037" lon="5.68725">
        <ele>1189.12</ele>
        <time>2016-08-25T11:04:01.000Z</time>
      </trkpt>
      <trkpt lat="45.30028" lon="5.68712">
        <ele>1190.48</ele>
        <time>2016-08-25T11:04:06.000Z</time>
      </trkpt>
      <trkpt lat="45.30025" lon="5.68701">
        <ele>1191.83</ele>
        <time>2016-08-25T11:04:11.000Z</time>
      </trkpt>
      <trkpt lat="45.30014" lon="5.68697">
        <ele>1193.18</ele>
        <time>2016-08-25T11:04:16.000Z</time>
      </trkpt>
      <trkpt lat="45.30005" lon="5.6869">
        <ele>1193.9</ele>
        <time>2016-08-25T11:04:21.000Z</time>
      </trkpt>
      <trkpt lat="45.29995" lon="5.68678">
        <ele>1194.61</ele>
        <time>2016-08-25T11:04:26.000Z</time>
      </trkpt>
      <trkpt lat="45.29983" lon="5.68668">
        <ele>1195.33</ele>
        <time>2016-08-25T11:04:31.000Z</time>
      </trkpt>
      <trkpt lat="45.29972" lon="5.68658">
        <ele>1194.1</ele>
        <time>2016-08-25T11:04:36.000Z</time>
      </trkpt>
      <trkpt lat="45.29968" lon="5.6865">
        <ele>1192.87</ele>
        <time>2016-08-25T11:04:41.000Z</time>
      </trkpt>
      <trkpt lat="45.29966" lon="5.68644">
        <ele>1191.64</ele>
        <time>2016-08-25T11:04:46.000Z</time>
      </trkpt>
      <trkpt lat="45.29966" lon="5.6864">
        <ele>1191.3</ele>
        <time>2016-08-25T11:04:51.000Z</time>
      </trkpt>
      <trkpt lat="45.29965" lon="5.68635">
        <ele>1190.95</ele>
        <time>2016-08-25T11:04:56.000Z</time>
      </trkpt>
      <trkpt lat="45.29962" lon="5.6863">
        <ele>1190.61</ele>
        <time>2016-08-25T11:05:01.000Z</time>
      </trkpt>
      <trkpt lat="45.29955" lon="5.68623">
        <ele>1193.73</ele>
        <time>2016-08-25T11:05:06.000Z</time>
      </trkpt>
      <trkpt lat="45.29947" lon="5.68609">
        <ele>1196.84</ele>
        <time>2016-08-25T11:05:11.000Z</time>
      </trkpt>
      <trkpt lat="45.29937" lon="5.68599">
        <ele>1199.96</ele>
        <time>2016-08-25T11:05:16.000Z</time>
      </trkpt>
      <trkpt lat="45.29923" lon="5.68596">
        <ele>1198.66</ele>
        <time>2016-08-25T11:05:21.000Z</time>
      </trkpt>
      <trkpt lat="45.29917" lon="5.68585">
        <ele>1197.37</ele>
        <time>2016-08-25T11:05:26.000Z</time>
      </trkpt>
      <trkpt lat="45.29911" lon="5.68564">
        <ele>1196.07</ele>
        <time>2016-08-25T11:05:31.000Z</time>
      </trkpt>
      <trkpt lat="45.29909" lon="5.68545">
        <ele>1192.85</ele>
        <time>2016-08-25T11:05:36.000Z</time>
      </trkpt>
      <trkpt lat="45.29906" lon="5.68526">
        <ele>1189.62</ele>
        <time>2016-08-25T11:05:41.000Z</time>
      </trkpt>
      <trkpt lat="45.29909" lon="5.6851">
        <ele>1186.39</ele>
        <time>2016-08-25T11:05:46.000Z</time>
      </trkpt>
      <trkpt lat="45.29914" lon="5.68493">
        <ele>1181.31</ele>
        <time>2016-08-25T11:05:51.000Z</time>
      </trkpt>
      <trkpt lat="45.29923" lon="5.68478">
        <ele>1176.24</ele>
        <time>2016-08-25T11:05:56.000Z</time>
      </trkpt>
      <trkpt lat="45.29929" lon="5.68459">
        <ele>1171.16</ele>
        <time>2016-08-25T11:06:01.000Z</time>
      </trkpt>
      <trkpt lat="45.29939" lon="5.68442">
        <ele>1167.37</ele>
        <time>2016-08-25T11:06:06.000Z</time>
      </trkpt>
      <trkpt lat="45.29952" lon="5.68426">
        <ele>1163.58</ele>
        <time>2016-08-25T11:06:11.000Z</time>
      </trkpt>
      <trkpt lat="45.29957" lon="5.68406">
        <ele>1159.8</ele>
        <time>2016-08-25T11:06:16.000Z</time>
      </trkpt>
      <trkpt lat="45.29956" lon="5.68389">
        <ele>1158.5</ele>
        <time>2016-08-25T11:06:21.000Z</time>
      </trkpt>
      <trkpt lat="45.29952" lon="5.68368">
        <ele>1157.2</ele>
        <time>2016-08-25T11:06:26.000Z</time>
      </trkpt>
      <trkpt lat="45.29947" lon="5.68343">
        <ele>1155.9</ele>
        <time>2016-08-25T11:06:31.000Z</time>
      </trkpt>
      <trkpt lat="45.2995" lon="5.68313">
        <ele>1151.65</ele>
        <time>2016-08-25T11:06:36.000Z</time>
      </trkpt>
      <trkpt lat="45.29956" lon="5.68281">
        <ele>1147.39</ele>
        <time>2016-08-25T11:06:41.000Z</time>
      </trkpt>
      <trkpt lat="45.29963" lon="5.68249">
        <ele>1143.14</ele>
        <time>2016-08-25T11:06:46.000Z</time>
      </trkpt>
      <trkpt lat="45.29971" lon="5.68219">
        <ele>1141.67</ele>
        <time>2016-08-25T11:06:51.000Z</time>
      </trkpt>
      <trkpt lat="45.29982" lon="5.68195">
        <ele>1140.2</ele>
        <time>2016-08-25T11:06:56.000Z</time>
      </trkpt>
      <trkpt lat="45.29987" lon="5.68186">
        <ele>1138.73</ele>
        <time>2016-08-25T11:07:01.000Z</time>
      </trkpt>
      <trkpt lat="45.29986" lon="5.68188">
        <ele>1138.72</ele>
        <time>2016-08-25T11:07:06.000Z</time>
      </trkpt>
      <trkpt lat="45.29986" lon="5.6819">
        <ele>1138.71</ele>
        <time>2016-08-25T11:07:11.000Z</time>
      </trkpt>
      <trkpt lat="45.29987" lon="5.68191">
        <ele>1138.7</ele>
        <time>2016-08-25T11:07:16.000Z</time>
      </trkpt>
      <trkpt lat="45.29987" lon="5.6819">
        <ele>1138.7</ele>
        <time>2016-08-25T11:07:21.000Z</time>
      </trkpt>
      <trkpt lat="45.29987" lon="5.68191">
        <ele>1138.71</ele>
        <time>2016-08-25T11:07:26.000Z</time>
      </trkpt>
      <trkpt lat="45.29988" lon="5.68191">
        <ele>1138.71</ele>
        <time>2016-08-25T11:07:31.000Z</time>
      </trkpt>
      <trkpt lat="45.29987" lon="5.68189">
        <ele>1140.74</ele>
        <time>2016-08-25T11:07:36.000Z</time>
      </trkpt>
      <trkpt lat="45.29983" lon="5.68179">
        <ele>1142.77</ele>
        <time>2016-08-25T11:07:41.000Z</time>
      </trkpt>
      <trkpt lat="45.29966" lon="5.68182">
        <ele>1144.81</ele>
        <time>2016-08-25T11:07:46.000Z</time>
      </trkpt>
      <trkpt lat="45.29948" lon="5.68191">
        <ele>1145.7</ele>
        <time>2016-08-25T11:07:51.000Z</time>
      </trkpt>
      <trkpt lat="45.29928" lon="5.68193">
        <ele>1146.6</ele>
        <time>2016-08-25T11:07:56.000Z</time>
      </trkpt>
      <trkpt lat="45.29901" lon="5.68184">
        <ele>1147.5</ele>
        <time>2016-08-25T11:08:01.000Z</time>
      </trkpt>
      <trkpt lat="45.29884" lon="5.68177">
        <ele>1145.79</ele>
        <time>2016-08-25T11:08:06.000Z</time>
      </trkpt>
      <trkpt lat="45.29863" lon="5.68169">
        <ele>1144.07</ele>
        <time>2016-08-25T11:08:11.000Z</time>
      </trkpt>
      <trkpt lat="45.29843" lon="5.68162">
        <ele>1142.36</ele>
        <time>2016-08-25T11:08:16.000Z</time>
      </trkpt>
      <trkpt lat="45.29826" lon="5.68152">
        <ele>1139.29</ele>
        <time>2016-08-25T11:08:21.000Z</time>
      </trkpt>
      <trkpt lat="45.29807" lon="5.6814">
        <ele>1136.21</ele>
        <time>2016-08-25T11:08:26.000Z</time>
      </trkpt>
      <trkpt lat="45.29785" lon="5.68127">
        <ele>1133.14</ele>
        <time>2016-08-25T11:08:31.000Z</time>
      </trkpt>
      <trkpt lat="45.29766" lon="5.68115">
        <ele>1130.61</ele>
        <time>2016-08-25T11:08:36.000Z</time>
      </trkpt>
      <trkpt lat="45.29746" lon="5.68105">
        <ele>1128.08</ele>
        <time>2016-08-25T11:08:41.000Z</time>
      </trkpt>
      <trkpt lat="45.29723" lon="5.68093">
        <ele>1125.55</ele>
        <time>2016-08-25T11:08:46.000Z</time>
      </trkpt>
      <trkpt lat="45.29706" lon="5.68089">
        <ele>1123.2</ele>
        <time>2016-08-25T11:08:51.000Z</time>
      </trkpt>
      <trkpt lat="45.29689" lon="5.68087">
        <ele>1120.85</ele>
        <time>2016-08-25T11:08:56.000Z</time>
      </trkpt>
      <trkpt lat="45.29668" lon="5.68086">
        <ele>1118.49</ele>
        <time>2016-08-25T11:09:01.000Z</time>
      </trkpt>
      <trkpt lat="45.29642" lon="5.68081">
        <ele>1114.89</ele>
        <time>2016-08-25T11:09:06.000Z</time>
      </trkpt>
      <trkpt lat="45.29621" lon="5.68074">
        <ele>1111.28</ele>
        <time>2016-08-25T11:09:11.000Z</time>
      </trkpt>
      <trkpt lat="45.29601" lon="5.68071">
        <ele>1107.67</ele>
        <time>2016-08-25T11:09:16.000Z</time>
      </trkpt>
      <trkpt lat="45.29579" lon="5.68067">
        <ele>1104.96</ele>
        <time>2016-08-25T11:09:21.000Z</time>
      </trkpt>
      <trkpt lat="45.29559" lon="5.68067">
        <ele>1102.25</ele>
        <time>2016-08-25T11:09:26.000Z</time>
      </trkpt>
      <trkpt lat="45.2954" lon="5.68064">
        <ele>1099.55</ele>
        <time>2016-08-25T11:09:31.000Z</time>
      </trkpt>
      <trkpt lat="45.29535" lon="5.68056">
        <ele>1096.53</ele>
        <time>2016-08-25T11:09:36.000Z</time>
      </trkpt>
      <trkpt lat="45.29538" lon="5.68031">
        <ele>1093.52</ele>
        <time>2016-08-25T11:09:41.000Z</time>
      </trkpt>
      <trkpt lat="45.29543" lon="5.68005">
        <ele>1090.5</ele>
        <time>2016-08-25T11:09:46.000Z</time>
      </trkpt>
      <trkpt lat="45.29544" lon="5.67979">
        <ele>1088.55</ele>
        <time>2016-08-25T11:09:51.000Z</time>
      </trkpt>
      <trkpt lat="45.29547" lon="5.67954">
        <ele>1086.6</ele>
        <time>2016-08-25T11:09:56.000Z</time>
      </trkpt>
      <trkpt lat="45.29551" lon="5.67931">
        <ele>1084.65</ele>
        <time>2016-08-25T11:10:01.000Z</time>
      </trkpt>
      <trkpt lat="45.29554" lon="5.67908">
        <ele>1083.1</ele>
        <time>2016-08-25T11:10:06.000Z</time>
      </trkpt>
      <trkpt lat="45.29546" lon="5.67895">
        <ele>1081.55</ele>
        <time>2016-08-25T11:10:11.000Z</time>
      </trkpt>
      <trkpt lat="45.29532" lon="5.67905">
        <ele>1080</ele>
        <time>2016-08-25T11:10:16.000Z</time>
      </trkpt>
      <trkpt lat="45.29521" lon="5.67922">
        <ele>1079.42</ele>
        <time>2016-08-25T11:10:21.000Z</time>
      </trkpt>
      <trkpt lat="45.29508" lon="5.67939">
        <ele>1078.84</ele>
        <time>2016-08-25T11:10:26.000Z</time>
      </trkpt>
      <trkpt lat="45.29494" lon="5.67956">
        <ele>1078.26</ele>
        <time>2016-08-25T11:10:31.000Z</time>
      </trkpt>
      <trkpt lat="45.29481" lon="5.67972">
        <ele>1078.1</ele>
        <time>2016-08-25T11:10:36.000Z</time>
      </trkpt>
      <trkpt lat="45.29469" lon="5.67988">
        <ele>1077.93</ele>
        <time>2016-08-25T11:10:41.000Z</time>
      </trkpt>
      <trkpt lat="45.29455" lon="5.68006">
        <ele>1077.77</ele>
        <time>2016-08-25T11:10:46.000Z</time>
      </trkpt>
      <trkpt lat="45.29439" lon="5.68021">
        <ele>1075.68</ele>
        <time>2016-08-25T11:10:51.000Z</time>
      </trkpt>
      <trkpt lat="45.29422" lon="5.68029">
        <ele>1073.59</ele>
        <time>2016-08-25T11:10:56.000Z</time>
      </trkpt>
      <trkpt lat="45.29402" lon="5.68036">
        <ele>1071.5</ele>
        <time>2016-08-25T11:11:01.000Z</time>
      </trkpt>
      <trkpt lat="45.29384" lon="5.68039">
        <ele>1067.13</ele>
        <time>2016-08-25T11:11:06.000Z</time>
      </trkpt>
      <trkpt lat="45.29363" lon="5.68034">
        <ele>1062.76</ele>
        <time>2016-08-25T11:11:11.000Z</time>
      </trkpt>
      <trkpt lat="45.29342" lon="5.6803">
        <ele>1058.39</ele>
        <time>2016-08-25T11:11:16.000Z</time>
      </trkpt>
      <trkpt lat="45.29324" lon="5.6803">
        <ele>1059.57</ele>
        <time>2016-08-25T11:11:21.000Z</time>
      </trkpt>
      <trkpt lat="45.2931" lon="5.68042">
        <ele>1060.75</ele>
        <time>2016-08-25T11:11:26.000Z</time>
      </trkpt>
      <trkpt lat="45.29306" lon="5.68048">
        <ele>1061.94</ele>
        <time>2016-08-25T11:11:31.000Z</time>
      </trkpt>
      <trkpt lat="45.29299" lon="5.68063">
        <ele>1056.22</ele>
        <time>2016-08-25T11:11:36.000Z</time>
      </trkpt>
      <trkpt lat="45.29277" lon="5.68056">
        <ele>1050.51</ele>
        <time>2016-08-25T11:11:41.000Z</time>
      </trkpt>
      <trkpt lat="45.29258" lon="5.68043">
        <ele>1044.8</ele>
        <time>2016-08-25T11:11:46.000Z</time>
      </trkpt>
      <trkpt lat="45.29239" lon="5.68038">
        <ele>1040.59</ele>
        <time>2016-08-25T11:11:51.000Z</time>
      </trkpt>
      <trkpt lat="45.29221" lon="5.68035">
        <ele>1036.38</ele>
        <time>2016-08-25T11:11:56.000Z</time>
      </trkpt>
      <trkpt lat="45.29199" lon="5.68032">
        <ele>1032.18</ele>
        <time>2016-08-25T11:12:01.000Z</time>
      </trkpt>
      <trkpt lat="45.29178" lon="5.68037">
        <ele>1033.88</ele>
        <time>2016-08-25T11:12:06.000Z</time>
      </trkpt>
      <trkpt lat="45.29162" lon="5.6805">
        <ele>1035.58</ele>
        <time>2016-08-25T11:12:11.000Z</time>
      </trkpt>
      <trkpt lat="45.29149" lon="5.68065">
        <ele>1037.28</ele>
        <time>2016-08-25T11:12:16.000Z</time>
      </trkpt>
      <trkpt lat="45.29136" lon="5.68077">
        <ele>1034.99</ele>
        <time>2016-08-25T11:12:21.000Z</time>
      </trkpt>
      <trkpt lat="45.29119" lon="5.68087">
        <ele>1032.7</ele>
        <time>2016-08-25T11:12:26.000Z</time>
      </trkpt>
      <trkpt lat="45.29101" lon="5.68092">
        <ele>1030.42</ele>
        <time>2016-08-25T11:12:31.000Z</time>
      </trkpt>
      <trkpt lat="45.29096" lon="5.68072">
        <ele>1027.45</ele>
        <time>2016-08-25T11:12:36.000Z</time>
      </trkpt>
      <trkpt lat="45.29102" lon="5.68063">
        <ele>1024.49</ele>
        <time>2016-08-25T11:12:41.000Z</time>
      </trkpt>
      <trkpt lat="45.2911" lon="5.6805">
        <ele>1021.52</ele>
        <time>2016-08-25T11:12:46.000Z</time>
      </trkpt>
      <trkpt lat="45.29124" lon="5.68032">
        <ele>1017.43</ele>
        <time>2016-08-25T11:12:51.000Z</time>
      </trkpt>
      <trkpt lat="45.29135" lon="5.6801">
        <ele>1013.34</ele>
        <time>2016-08-25T11:12:56.000Z</time>
      </trkpt>
      <trkpt lat="45.29145" lon="5.67989">
        <ele>1009.24</ele>
        <time>2016-08-25T11:13:01.000Z</time>
      </trkpt>
      <trkpt lat="45.29153" lon="5.6797">
        <ele>1007.15</ele>
        <time>2016-08-25T11:13:06.000Z</time>
      </trkpt>
      <trkpt lat="45.29165" lon="5.67948">
        <ele>1005.05</ele>
        <time>2016-08-25T11:13:11.000Z</time>
      </trkpt>
      <trkpt lat="45.29179" lon="5.67934">
        <ele>1002.95</ele>
        <time>2016-08-25T11:13:16.000Z</time>
      </trkpt>
      <trkpt lat="45.29191" lon="5.67918">
        <ele>1000.49</ele>
        <time>2016-08-25T11:13:21.000Z</time>
      </trkpt>
      <trkpt lat="45.29202" lon="5.67899">
        <ele>998.02</ele>
        <time>2016-08-25T11:13:26.000Z</time>
      </trkpt>
      <trkpt lat="45.29215" lon="5.67881">
        <ele>995.55</ele>
        <time>2016-08-25T11:13:31.000Z</time>
      </trkpt>
      <trkpt lat="45.29223" lon="5.6786">
        <ele>992.91</ele>
        <time>2016-08-25T11:13:36.000Z</time>
      </trkpt>
      <trkpt lat="45.29229" lon="5.67836">
        <ele>990.26</ele>
        <time>2016-08-25T11:13:41.000Z</time>
      </trkpt>
      <trkpt lat="45.29237" lon="5.67814">
        <ele>987.62</ele>
        <time>2016-08-25T11:13:46.000Z</time>
      </trkpt>
      <trkpt lat="45.29251" lon="5.67798">
        <ele>988.5</ele>
        <time>2016-08-25T11:13:51.000Z</time>
      </trkpt>
      <trkpt lat="45.29269" lon="5.67792">
        <ele>989.38</ele>
        <time>2016-08-25T11:13:56.000Z</time>
      </trkpt>
      <trkpt lat="45.29285" lon="5.67784">
        <ele>990.26</ele>
        <time>2016-08-25T11:14:01.000Z</time>
      </trkpt>
      <trkpt lat="45.29277" lon="5.67774">
        <ele>986.24</ele>
        <time>2016-08-25T11:14:06.000Z</time>
      </trkpt>
      <trkpt lat="45.29261" lon="5.6778">
        <ele>982.21</ele>
        <time>2016-08-25T11:14:11.000Z</time>
      </trkpt>
      <trkpt lat="45.29244" lon="5.67781">
        <ele>978.18</ele>
        <time>2016-08-25T11:14:16.000Z</time>
      </trkpt>
      <trkpt lat="45.29226" lon="5.67785">
        <ele>973.73</ele>
        <time>2016-08-25T11:14:21.000Z</time>
      </trkpt>
      <trkpt lat="45.29206" lon="5.67793">
        <ele>969.27</ele>
        <time>2016-08-25T11:14:26.000Z</time>
      </trkpt>
      <trkpt lat="45.29189" lon="5.6778">
        <ele>964.82</ele>
        <time>2016-08-25T11:14:31.000Z</time>
      </trkpt>
      <trkpt lat="45.29193" lon="5.67759">
        <ele>963.78</ele>
        <time>2016-08-25T11:14:36.000Z</time>
      </trkpt>
      <trkpt lat="45.29203" lon="5.67742">
        <ele>962.74</ele>
        <time>2016-08-25T11:14:41.000Z</time>
      </trkpt>
      <trkpt lat="45.29212" lon="5.67727">
        <ele>961.7</ele>
        <time>2016-08-25T11:14:46.000Z</time>
      </trkpt>
      <trkpt lat="45.29218" lon="5.67719">
        <ele>961.7</ele>
        <time>2016-08-25T11:14:51.000Z</time>
      </trkpt>
      <trkpt lat="45.2922" lon="5.67714">
        <ele>961.7</ele>
        <time>2016-08-25T11:14:56.000Z</time>
      </trkpt>
      <trkpt lat="45.29222" lon="5.67715">
        <ele>961.7</ele>
        <time>2016-08-25T11:15:01.000Z</time>
      </trkpt>
    </trkseg>
  </trk>
</gpx>